DLH454 EDDF-KSFO
Flight info
| Callsign | DLH454 |
|---|---|
| Flight time | 11h 1m |
| Altitude | 32000 |
| Route | OBOKA3D/07C OBOKA Z29 TORNU DCT WOODY DCT VICOT DCT GALSO Q63 ERING L179 LAM L10 BPK UN601 LESTA UP6 RODOL UM65 TENSO L603 BELOX DCT GOMUP/M083F340 DCT 62N020W 6530N03000W 68N040W 69N050W 69N060W/M083F360 DCT BOPUT/N0485F360 DCT 6830N07000W 67N080W 6430N09000W 60N100W DCT MEETO/N0483F380 Q896 YQL DCT REO DCT FIMUV DCT LEGGS BDEGA3 |
| Aircraft | A346/H-SDE2E3FGHIJ3J4J5M1RWXY/LB1D1 |
Departure
| Time | 2026-04-15 09:49 |
|---|---|
| Airport | Frankfurt Main Airport (EDDF) |
Arrival
| Time | 2026-04-15 20:51 |
|---|---|
| Airport | San Francisco International Airport (KSFO) |
| Time | Latitude | Longitude | Altitude | Speed | Heading |
|---|---|---|---|---|---|
| 2026-04-15 09:17 | 50.04540 | 8.56756 | 364 ft | 0 kts | 295° |
| 2026-04-15 09:34 | 50.04533 | 8.56778 | 366 ft | 0 kts | 295° |
| 2026-04-15 09:34 | 50.04522 | 8.56815 | 369 ft | 3 kts | 295° |
| 2026-04-15 09:35 | 50.04511 | 8.56852 | 372 ft | 0 kts | 295° |
| 2026-04-15 09:35 | 50.04500 | 8.56890 | 370 ft | 0 kts | 295° |
| 2026-04-15 09:35 | 50.04489 | 8.56928 | 368 ft | 0 kts | 295° |
| 2026-04-15 09:35 | 50.04479 | 8.56965 | 372 ft | 0 kts | 287° |
| 2026-04-15 09:36 | 50.04477 | 8.56980 | 370 ft | 0 kts | 273° |
| 2026-04-15 09:40 | 50.04477 | 8.56978 | 366 ft | 0 kts | 273° |
| 2026-04-15 09:40 | 50.04477 | 8.56958 | 366 ft | 3 kts | 266° |
| 2026-04-15 09:40 | 50.04467 | 8.56896 | 370 ft | 9 kts | 251° |
| 2026-04-15 09:41 | 50.04444 | 8.56794 | 372 ft | 11 kts | 250° |
| 2026-04-15 09:41 | 50.04415 | 8.56672 | 366 ft | 13 kts | 250° |
| 2026-04-15 09:41 | 50.04383 | 8.56537 | 370 ft | 14 kts | 249° |
| 2026-04-15 09:41 | 50.04346 | 8.56386 | 365 ft | 15 kts | 249° |
| 2026-04-15 09:42 | 50.04309 | 8.56233 | 368 ft | 15 kts | 250° |
| 2026-04-15 09:42 | 50.04278 | 8.56099 | 365 ft | 13 kts | 250° |
| 2026-04-15 09:42 | 50.04252 | 8.55990 | 368 ft | 10 kts | 249° |
| 2026-04-15 09:42 | 50.04202 | 8.55921 | 366 ft | 12 kts | 182° |
| 2026-04-15 09:43 | 50.04128 | 8.55952 | 366 ft | 10 kts | 160° |
| 2026-04-15 09:43 | 50.04090 | 8.55973 | 364 ft | 5 kts | 161° |
| 2026-04-15 09:43 | 50.04066 | 8.55977 | 366 ft | 4 kts | 208° |
| 2026-04-15 09:43 | 50.04045 | 8.55928 | 360 ft | 7 kts | 247° |
| 2026-04-15 09:44 | 50.04024 | 8.55845 | 363 ft | 9 kts | 249° |
| 2026-04-15 09:44 | 50.03997 | 8.55737 | 362 ft | 12 kts | 249° |
| 2026-04-15 09:44 | 50.03966 | 8.55606 | 363 ft | 14 kts | 250° |
| 2026-04-15 09:44 | 50.03933 | 8.55463 | 363 ft | 14 kts | 250° |
| 2026-04-15 09:45 | 50.03897 | 8.55316 | 361 ft | 15 kts | 249° |
| 2026-04-15 09:45 | 50.03857 | 8.55155 | 365 ft | 16 kts | 249° |
| 2026-04-15 09:45 | 50.03819 | 8.54990 | 362 ft | 16 kts | 250° |
| 2026-04-15 09:45 | 50.03779 | 8.54821 | 358 ft | 17 kts | 250° |
| 2026-04-15 09:46 | 50.03736 | 8.54641 | 362 ft | 18 kts | 249° |
| 2026-04-15 09:46 | 50.03690 | 8.54451 | 358 ft | 18 kts | 250° |
| 2026-04-15 09:46 | 50.03665 | 8.54348 | 356 ft | 8 kts | 243° |
| 2026-04-15 09:46 | 50.03617 | 8.54307 | 353 ft | 9 kts | 169° |
| 2026-04-15 09:47 | 50.03558 | 8.54339 | 354 ft | 9 kts | 160° |
| 2026-04-15 09:47 | 50.03506 | 8.54367 | 358 ft | 7 kts | 160° |
| 2026-04-15 09:47 | 50.03490 | 8.54399 | 356 ft | 3 kts | 80° |
| 2026-04-15 09:47 | 50.03496 | 8.54433 | 357 ft | 4 kts | 73° |
| 2026-04-15 09:48 | 50.03508 | 8.54489 | 359 ft | 9 kts | 70° |
| 2026-04-15 09:48 | 50.03602 | 8.54885 | 359 ft | 73 kts | 69° |
| 2026-04-15 09:48 | 50.03853 | 8.55936 | 365 ft | 132 kts | 69° |
| 2026-04-15 09:48 | 50.04231 | 8.57521 | 380 ft | 181 kts | 69° |
| 2026-04-15 09:49 | 50.04681 | 8.59422 | 856 ft | 190 kts | 69° |
| 2026-04-15 09:49 | 50.05159 | 8.61386 | 1548 ft | 195 kts | 69° |
| 2026-04-15 09:49 | 50.05660 | 8.63372 | 2271 ft | 197 kts | 69° |
| 2026-04-15 09:49 | 50.06166 | 8.65393 | 2731 ft | 203 kts | 69° |
| 2026-04-15 09:50 | 50.06657 | 8.67526 | 3098 ft | 213 kts | 72° |
| 2026-04-15 09:50 | 50.07126 | 8.69763 | 3512 ft | 221 kts | 68° |
| 2026-04-15 09:50 | 50.08038 | 8.71698 | 3972 ft | 229 kts | 34° |
| 2026-04-15 09:50 | 50.09524 | 8.72809 | 4283 ft | 245 kts | 23° |
| 2026-04-15 09:51 | 50.11157 | 8.73807 | 4628 ft | 258 kts | 22° |
| 2026-04-15 09:51 | 50.12864 | 8.74858 | 5051 ft | 268 kts | 23° |
| 2026-04-15 09:51 | 50.14578 | 8.75942 | 5596 ft | 271 kts | 24° |
| 2026-04-15 09:51 | 50.16317 | 8.77116 | 6211 ft | 273 kts | 24° |
| 2026-04-15 09:52 | 50.18062 | 8.78330 | 6771 ft | 276 kts | 24° |
| 2026-04-15 09:52 | 50.19837 | 8.79557 | 7273 ft | 281 kts | 24° |
| 2026-04-15 09:52 | 50.21636 | 8.80790 | 7815 ft | 283 kts | 24° |
| 2026-04-15 09:52 | 50.23452 | 8.82015 | 8363 ft | 285 kts | 21° |
| 2026-04-15 09:53 | 50.25384 | 8.82773 | 8858 ft | 289 kts | 358° |
| 2026-04-15 09:53 | 50.27331 | 8.82035 | 9291 ft | 292 kts | 327° |
| 2026-04-15 09:53 | 50.28771 | 8.79877 | 9765 ft | 293 kts | 300° |
| 2026-04-15 09:53 | 50.29563 | 8.76949 | 10293 ft | 294 kts | 286° |
| 2026-04-15 09:54 | 50.30145 | 8.73824 | 10641 ft | 303 kts | 285° |
| 2026-04-15 09:54 | 50.30759 | 8.70603 | 11003 ft | 312 kts | 286° |
| 2026-04-15 09:54 | 50.31443 | 8.67321 | 11349 ft | 322 kts | 288° |
| 2026-04-15 09:54 | 50.32176 | 8.63914 | 11592 ft | 336 kts | 288° |
| 2026-04-15 09:55 | 50.32939 | 8.60388 | 11872 ft | 347 kts | 288° |
| 2026-04-15 09:55 | 50.33736 | 8.56762 | 12217 ft | 357 kts | 288° |
| 2026-04-15 09:55 | 50.34546 | 8.53093 | 12591 ft | 364 kts | 288° |
| 2026-04-15 09:55 | 50.35382 | 8.49297 | 13019 ft | 371 kts | 288° |
| 2026-04-15 09:56 | 50.36230 | 8.45442 | 13578 ft | 374 kts | 288° |
| 2026-04-15 09:56 | 50.37080 | 8.41568 | 14159 ft | 376 kts | 288° |
| 2026-04-15 09:56 | 50.37718 | 8.33432 | 14917 ft | 387 kts | 259° |
| 2026-04-15 09:57 | 50.37016 | 8.29345 | 15457 ft | 388 kts | 252° |
| 2026-04-15 09:57 | 50.36127 | 8.25321 | 15941 ft | 391 kts | 251° |
| 2026-04-15 09:57 | 50.35206 | 8.21288 | 16413 ft | 394 kts | 251° |
| 2026-04-15 09:57 | 50.34291 | 8.17282 | 16882 ft | 397 kts | 251° |
| 2026-04-15 09:58 | 50.33448 | 8.13140 | 17366 ft | 400 kts | 254° |
| 2026-04-15 09:58 | 50.32674 | 8.08882 | 17884 ft | 402 kts | 255° |
| 2026-04-15 09:58 | 50.32140 | 8.04626 | 18212 ft | 408 kts | 267° |
| 2026-04-15 09:58 | 50.32404 | 8.00171 | 18379 ft | 416 kts | 287° |
| 2026-04-15 09:59 | 50.33688 | 7.96122 | 18788 ft | 417 kts | 308° |
| 2026-04-15 09:59 | 50.35705 | 7.92893 | 19422 ft | 412 kts | 316° |
| 2026-04-15 09:59 | 50.37758 | 7.89741 | 19875 ft | 414 kts | 314° |
| 2026-04-15 09:59 | 50.39773 | 7.86439 | 20129 ft | 421 kts | 312° |
| 2026-04-15 10:00 | 50.41749 | 7.83117 | 20520 ft | 423 kts | 313° |
| 2026-04-15 10:00 | 50.43780 | 7.79754 | 20990 ft | 424 kts | 313° |
| 2026-04-15 10:00 | 50.45862 | 7.76464 | 21423 ft | 425 kts | 315° |
| 2026-04-15 10:00 | 50.48022 | 7.73253 | 21845 ft | 427 kts | 316° |
| 2026-04-15 10:01 | 50.50200 | 7.70050 | 22230 ft | 430 kts | 316° |
| 2026-04-15 10:01 | 50.52399 | 7.66807 | 22602 ft | 433 kts | 316° |
| 2026-04-15 10:01 | 50.53848 | 7.64657 | 22853 ft | 434 kts | 316° |
| 2026-04-15 10:01 | 50.56047 | 7.61379 | 23239 ft | 436 kts | 316° |
| 2026-04-15 10:02 | 50.58980 | 7.56990 | 23738 ft | 439 kts | 316° |
| 2026-04-15 10:02 | 50.60481 | 7.54748 | 23956 ft | 441 kts | 316° |
| 2026-04-15 10:02 | 50.62693 | 7.51448 | 24271 ft | 443 kts | 316° |
| 2026-04-15 10:02 | 50.64935 | 7.48105 | 24623 ft | 444 kts | 316° |
| 2026-04-15 10:03 | 50.67178 | 7.44755 | 24977 ft | 444 kts | 316° |
| 2026-04-15 10:03 | 50.69424 | 7.41391 | 25304 ft | 445 kts | 316° |
| 2026-04-15 10:03 | 50.71658 | 7.37984 | 25616 ft | 447 kts | 314° |
| 2026-04-15 10:03 | 50.73712 | 7.34272 | 25924 ft | 448 kts | 308° |
| 2026-04-15 10:04 | 50.75522 | 7.30222 | 26225 ft | 450 kts | 302° |
| 2026-04-15 10:04 | 50.77070 | 7.25924 | 26546 ft | 451 kts | 298° |
| 2026-04-15 10:04 | 50.78523 | 7.21507 | 26850 ft | 453 kts | 298° |
| 2026-04-15 10:04 | 50.79943 | 7.17109 | 27157 ft | 454 kts | 297° |
| 2026-04-15 10:05 | 50.81381 | 7.12645 | 27452 ft | 456 kts | 298° |
| 2026-04-15 10:05 | 50.82832 | 7.08148 | 27749 ft | 457 kts | 298° |
| 2026-04-15 10:05 | 50.84283 | 7.03657 | 28029 ft | 459 kts | 297° |
| 2026-04-15 10:05 | 50.85736 | 6.99164 | 28300 ft | 460 kts | 297° |
| 2026-04-15 10:06 | 50.87200 | 6.94626 | 28574 ft | 462 kts | 297° |
| 2026-04-15 10:06 | 50.88661 | 6.90085 | 28933 ft | 461 kts | 297° |
| 2026-04-15 10:06 | 50.90096 | 6.85617 | 29380 ft | 459 kts | 297° |
| 2026-04-15 10:06 | 50.91544 | 6.81099 | 29848 ft | 456 kts | 297° |
| 2026-04-15 10:07 | 50.92976 | 6.76625 | 30277 ft | 454 kts | 297° |
| 2026-04-15 10:07 | 50.94404 | 6.72158 | 30618 ft | 453 kts | 297° |
| 2026-04-15 10:07 | 50.95829 | 6.67694 | 30898 ft | 453 kts | 297° |
| 2026-04-15 10:07 | 50.97255 | 6.63219 | 31124 ft | 454 kts | 297° |
| 2026-04-15 10:08 | 50.98686 | 6.58726 | 31336 ft | 455 kts | 297° |
| 2026-04-15 10:08 | 51.00110 | 6.54247 | 31534 ft | 456 kts | 297° |
| 2026-04-15 10:08 | 51.01541 | 6.49727 | 31776 ft | 457 kts | 297° |
| 2026-04-15 10:08 | 51.02970 | 6.45205 | 31995 ft | 457 kts | 297° |
| 2026-04-15 10:09 | 51.04379 | 6.40739 | 32214 ft | 458 kts | 297° |
| 2026-04-15 10:09 | 51.07233 | 6.31671 | 32222 ft | 458 kts | 297° |
| 2026-04-15 10:10 | 51.10082 | 6.22582 | 32210 ft | 458 kts | 297° |
| 2026-04-15 10:10 | 51.12795 | 6.13394 | 32206 ft | 459 kts | 293° |
| 2026-04-15 10:11 | 51.14948 | 6.03809 | 32206 ft | 459 kts | 287° |
| 2026-04-15 10:11 | 51.16604 | 5.94018 | 32205 ft | 460 kts | 285° |
| 2026-04-15 10:12 | 51.18206 | 5.84127 | 32195 ft | 460 kts | 285° |
| 2026-04-15 10:12 | 51.19784 | 5.74202 | 32200 ft | 459 kts | 285° |
| 2026-04-15 10:13 | 51.21333 | 5.64353 | 32187 ft | 459 kts | 284° |
| 2026-04-15 10:13 | 51.22878 | 5.54432 | 32183 ft | 459 kts | 284° |
| 2026-04-15 10:14 | 51.24416 | 5.44512 | 32190 ft | 459 kts | 284° |
| 2026-04-15 10:14 | 51.25948 | 5.34575 | 32192 ft | 459 kts | 284° |
| 2026-04-15 10:15 | 51.27471 | 5.24647 | 32183 ft | 459 kts | 284° |
| 2026-04-15 10:15 | 51.28982 | 5.14762 | 32184 ft | 460 kts | 283° |
| 2026-04-15 10:16 | 51.30490 | 5.04793 | 32188 ft | 460 kts | 283° |
| 2026-04-15 10:16 | 51.31985 | 4.94850 | 32187 ft | 460 kts | 283° |
| 2026-04-15 10:17 | 51.33476 | 4.84884 | 32184 ft | 460 kts | 283° |
| 2026-04-15 10:17 | 51.34957 | 4.74924 | 32181 ft | 460 kts | 283° |
| 2026-04-15 10:18 | 51.36433 | 4.64933 | 32183 ft | 459 kts | 283° |
| 2026-04-15 10:18 | 51.37917 | 4.54822 | 32184 ft | 459 kts | 283° |
| 2026-04-15 10:19 | 51.39354 | 4.44957 | 32184 ft | 459 kts | 283° |
| 2026-04-15 10:19 | 51.41039 | 4.35074 | 32183 ft | 459 kts | 287° |
| 2026-04-15 10:20 | 51.43230 | 4.25509 | 32185 ft | 460 kts | 290° |
| 2026-04-15 10:20 | 51.45546 | 4.15935 | 32182 ft | 460 kts | 290° |
| 2026-04-15 10:21 | 51.47866 | 4.06358 | 32174 ft | 460 kts | 291° |
| 2026-04-15 10:21 | 51.50488 | 3.96986 | 32168 ft | 460 kts | 294° |
| 2026-04-15 10:22 | 51.53197 | 3.87653 | 32161 ft | 459 kts | 294° |
| 2026-04-15 10:22 | 51.55900 | 3.78318 | 32150 ft | 460 kts | 293° |
| 2026-04-15 10:23 | 51.58589 | 3.68958 | 32147 ft | 461 kts | 293° |
| 2026-04-15 10:23 | 51.61256 | 3.59634 | 32141 ft | 461 kts | 293° |
| 2026-04-15 10:24 | 51.63932 | 3.50249 | 32141 ft | 461 kts | 293° |
| 2026-04-15 10:24 | 51.66606 | 3.40832 | 32135 ft | 461 kts | 292° |
| 2026-04-15 10:25 | 51.69241 | 3.31387 | 32131 ft | 461 kts | 289° |
| 2026-04-15 10:25 | 51.71125 | 3.21549 | 32134 ft | 458 kts | 280° |
| 2026-04-15 10:26 | 51.71989 | 3.11423 | 32135 ft | 457 kts | 272° |
| 2026-04-15 10:26 | 51.71834 | 3.01178 | 32134 ft | 456 kts | 263° |
| 2026-04-15 10:27 | 51.71002 | 2.91043 | 32131 ft | 455 kts | 262° |
| 2026-04-15 10:27 | 51.70125 | 2.80917 | 32134 ft | 454 kts | 261° |
| 2026-04-15 10:28 | 51.69240 | 2.70877 | 32128 ft | 454 kts | 261° |
| 2026-04-15 10:28 | 51.68346 | 2.60785 | 32127 ft | 454 kts | 261° |
| 2026-04-15 10:29 | 51.67443 | 2.50673 | 32112 ft | 454 kts | 261° |
| 2026-04-15 10:29 | 51.66533 | 2.40575 | 32128 ft | 454 kts | 260° |
| 2026-04-15 10:30 | 51.65627 | 2.30571 | 32117 ft | 453 kts | 259° |
| 2026-04-15 10:30 | 51.64697 | 2.20502 | 32112 ft | 453 kts | 259° |
| 2026-04-15 10:31 | 51.63762 | 2.10450 | 32115 ft | 453 kts | 259° |
| 2026-04-15 10:31 | 51.62819 | 2.00386 | 32106 ft | 453 kts | 259° |
| 2026-04-15 10:32 | 51.61873 | 1.90351 | 32118 ft | 453 kts | 259° |
| 2026-04-15 10:32 | 51.60925 | 1.80393 | 32107 ft | 451 kts | 258° |
| 2026-04-15 10:33 | 51.59978 | 1.70405 | 32099 ft | 451 kts | 260° |
| 2026-04-15 10:33 | 51.59448 | 1.60314 | 32100 ft | 453 kts | 265° |
| 2026-04-15 10:34 | 51.59529 | 1.50106 | 32093 ft | 456 kts | 270° |
| 2026-04-15 10:34 | 51.59966 | 1.39973 | 32108 ft | 456 kts | 270° |
| 2026-04-15 10:35 | 51.60407 | 1.29794 | 32091 ft | 455 kts | 270° |
| 2026-04-15 10:35 | 51.60827 | 1.19602 | 32092 ft | 455 kts | 270° |
| 2026-04-15 10:36 | 51.61235 | 1.09409 | 32084 ft | 455 kts | 270° |
| 2026-04-15 10:36 | 51.61635 | 0.99234 | 32082 ft | 455 kts | 269° |
| 2026-04-15 10:37 | 51.62030 | 0.89108 | 32081 ft | 455 kts | 269° |
| 2026-04-15 10:37 | 51.62407 | 0.78944 | 32074 ft | 455 kts | 268° |
| 2026-04-15 10:38 | 51.62777 | 0.68770 | 32079 ft | 455 kts | 268° |
| 2026-04-15 10:38 | 51.63141 | 0.58580 | 32075 ft | 455 kts | 268° |
| 2026-04-15 10:39 | 51.63498 | 0.48390 | 32068 ft | 454 kts | 268° |
| 2026-04-15 10:39 | 51.63850 | 0.38222 | 32066 ft | 454 kts | 267° |
| 2026-04-15 10:40 | 51.64315 | 0.28039 | 32048 ft | 457 kts | 272° |
| 2026-04-15 10:40 | 51.65618 | 0.17925 | 32044 ft | 465 kts | 280° |
| 2026-04-15 10:41 | 51.67946 | 0.08165 | 32044 ft | 474 kts | 289° |
| 2026-04-15 10:41 | 51.71350 | -0.01037 | 32078 ft | 483 kts | 298° |
| 2026-04-15 10:42 | 51.75819 | -0.09434 | 31986 ft | 500 kts | 308° |
| 2026-04-15 10:42 | 51.81255 | -0.16624 | 31996 ft | 511 kts | 319° |
| 2026-04-15 10:43 | 51.87373 | -0.22644 | 32031 ft | 515 kts | 323° |
| 2026-04-15 10:43 | 51.93547 | -0.28431 | 32022 ft | 515 kts | 323° |
| 2026-04-15 10:44 | 51.99735 | -0.34324 | 32021 ft | 515 kts | 323° |
| 2026-04-15 10:44 | 52.05903 | -0.40263 | 32007 ft | 515 kts | 323° |
| 2026-04-15 10:45 | 52.12031 | -0.46187 | 31998 ft | 515 kts | 323° |
| 2026-04-15 10:45 | 52.18201 | -0.52162 | 31995 ft | 515 kts | 322° |
| 2026-04-15 10:46 | 52.24374 | -0.58165 | 31993 ft | 515 kts | 322° |
| 2026-04-15 10:46 | 52.30532 | -0.64171 | 32000 ft | 515 kts | 322° |
| 2026-04-15 10:47 | 52.36663 | -0.70171 | 31983 ft | 516 kts | 322° |
| 2026-04-15 10:47 | 52.42831 | -0.76228 | 31979 ft | 515 kts | 322° |
| 2026-04-15 10:48 | 52.48990 | -0.82294 | 31980 ft | 515 kts | 322° |
| 2026-04-15 10:48 | 52.55146 | -0.88375 | 31975 ft | 516 kts | 322° |
| 2026-04-15 10:49 | 52.61266 | -0.94444 | 31950 ft | 516 kts | 322° |
| 2026-04-15 10:49 | 52.66388 | -0.99538 | 31940 ft | 516 kts | 322° |
| 2026-04-15 10:50 | 52.72427 | -1.05924 | 31947 ft | 513 kts | 317° |
| 2026-04-15 10:50 | 52.77974 | -1.13283 | 31980 ft | 507 kts | 310° |
| 2026-04-15 10:51 | 52.83117 | -1.21296 | 31985 ft | 509 kts | 309° |
| 2026-04-15 10:51 | 52.85673 | -1.25359 | 32250 ft | 508 kts | 309° |
| 2026-04-15 10:51 | 52.88186 | -1.29344 | 32667 ft | 505 kts | 309° |
| 2026-04-15 10:51 | 52.90721 | -1.33355 | 33052 ft | 502 kts | 309° |
| 2026-04-15 10:52 | 52.93250 | -1.37358 | 33361 ft | 501 kts | 309° |
| 2026-04-15 10:52 | 52.95775 | -1.41359 | 33628 ft | 500 kts | 309° |
| 2026-04-15 10:52 | 52.98293 | -1.45353 | 33878 ft | 500 kts | 309° |
| 2026-04-15 10:53 | 53.03310 | -1.53331 | 34007 ft | 500 kts | 308° |
| 2026-04-15 10:53 | 53.08371 | -1.61407 | 33948 ft | 505 kts | 308° |
| 2026-04-15 10:54 | 53.13440 | -1.69523 | 33926 ft | 505 kts | 308° |
| 2026-04-15 10:54 | 53.18508 | -1.77658 | 33921 ft | 506 kts | 309° |
| 2026-04-15 10:55 | 53.23879 | -1.85303 | 33920 ft | 513 kts | 315° |
| 2026-04-15 10:55 | 53.29835 | -1.92030 | 33915 ft | 520 kts | 322° |
| 2026-04-15 10:56 | 53.36157 | -1.98038 | 33912 ft | 522 kts | 324° |
| 2026-04-15 10:56 | 53.42495 | -2.03967 | 33912 ft | 521 kts | 324° |
| 2026-04-15 10:57 | 53.48826 | -2.09989 | 33904 ft | 525 kts | 323° |
| 2026-04-15 10:57 | 53.57469 | -2.20700 | 33888 ft | 507 kts | 305° |
| 2026-04-15 10:58 | 53.61707 | -2.29963 | 33879 ft | 491 kts | 292° |
| 2026-04-15 10:58 | 53.64592 | -2.40192 | 33883 ft | 478 kts | 282° |
| 2026-04-15 10:59 | 53.66943 | -2.50683 | 33877 ft | 477 kts | 281° |
| 2026-04-15 10:59 | 53.69291 | -2.61188 | 33955 ft | 478 kts | 281° |
| 2026-04-15 11:00 | 53.71657 | -2.71689 | 33883 ft | 483 kts | 281° |
| 2026-04-15 11:00 | 53.74057 | -2.82372 | 33858 ft | 485 kts | 281° |
| 2026-04-15 11:01 | 53.76446 | -2.93029 | 33858 ft | 485 kts | 281° |
| 2026-04-15 11:01 | 53.78830 | -3.03718 | 33857 ft | 485 kts | 281° |
| 2026-04-15 11:02 | 53.81193 | -3.14366 | 33925 ft | 485 kts | 281° |
| 2026-04-15 11:02 | 53.83563 | -3.25104 | 33868 ft | 487 kts | 280° |
| 2026-04-15 11:03 | 53.85996 | -3.35848 | 33852 ft | 491 kts | 283° |
| 2026-04-15 11:03 | 53.89075 | -3.46327 | 33853 ft | 501 kts | 291° |
| 2026-04-15 11:04 | 53.92970 | -3.56299 | 33847 ft | 511 kts | 298° |
| 2026-04-15 11:04 | 53.97624 | -3.65592 | 33832 ft | 518 kts | 304° |
| 2026-04-15 11:05 | 54.02537 | -3.74603 | 33860 ft | 522 kts | 304° |
| 2026-04-15 11:05 | 54.07454 | -3.83652 | 33822 ft | 523 kts | 304° |
| 2026-04-15 11:06 | 54.12380 | -3.92796 | 33825 ft | 523 kts | 304° |
| 2026-04-15 11:06 | 54.17282 | -4.01959 | 33816 ft | 523 kts | 304° |
| 2026-04-15 11:07 | 54.22188 | -4.11175 | 33806 ft | 524 kts | 304° |
| 2026-04-15 11:07 | 54.27099 | -4.20429 | 33804 ft | 524 kts | 304° |
| 2026-04-15 11:08 | 54.31965 | -4.29641 | 33835 ft | 525 kts | 304° |
| 2026-04-15 11:08 | 54.36877 | -4.38973 | 33786 ft | 526 kts | 304° |
| 2026-04-15 11:09 | 54.41761 | -4.48280 | 33787 ft | 526 kts | 304° |
| 2026-04-15 11:09 | 54.46672 | -4.57686 | 33777 ft | 527 kts | 304° |
| 2026-04-15 11:10 | 54.51562 | -4.67079 | 33772 ft | 526 kts | 304° |
| 2026-04-15 11:10 | 54.56421 | -4.76450 | 33755 ft | 526 kts | 304° |
| 2026-04-15 11:11 | 54.61297 | -4.85895 | 33820 ft | 526 kts | 304° |
| 2026-04-15 11:11 | 54.66169 | -4.95378 | 33757 ft | 527 kts | 304° |
| 2026-04-15 11:12 | 54.71051 | -5.04906 | 33742 ft | 528 kts | 304° |
| 2026-04-15 11:12 | 54.75924 | -5.14447 | 33736 ft | 528 kts | 304° |
| 2026-04-15 11:13 | 54.80793 | -5.24022 | 33719 ft | 528 kts | 304° |
| 2026-04-15 11:13 | 54.85627 | -5.33568 | 33716 ft | 528 kts | 304° |
| 2026-04-15 11:14 | 54.90479 | -5.43188 | 33715 ft | 529 kts | 304° |
| 2026-04-15 11:14 | 54.95330 | -5.52865 | 33721 ft | 531 kts | 305° |
| 2026-04-15 11:15 | 55.00155 | -5.62503 | 33703 ft | 531 kts | 305° |
| 2026-04-15 11:15 | 55.05007 | -5.72231 | 33698 ft | 531 kts | 305° |
| 2026-04-15 11:16 | 55.09866 | -5.82016 | 33700 ft | 531 kts | 304° |
| 2026-04-15 11:16 | 55.14702 | -5.91795 | 33688 ft | 532 kts | 304° |
| 2026-04-15 11:17 | 55.19505 | -6.01553 | 33686 ft | 532 kts | 304° |
| 2026-04-15 11:17 | 55.24346 | -6.11427 | 33677 ft | 532 kts | 304° |
| 2026-04-15 11:18 | 55.29167 | -6.21299 | 33666 ft | 532 kts | 304° |
| 2026-04-15 11:18 | 55.33981 | -6.31198 | 33664 ft | 532 kts | 304° |
| 2026-04-15 11:19 | 55.38789 | -6.41127 | 33669 ft | 532 kts | 304° |
| 2026-04-15 11:19 | 55.43554 | -6.51006 | 33652 ft | 532 kts | 304° |
| 2026-04-15 11:20 | 55.48344 | -6.60976 | 33649 ft | 532 kts | 304° |
| 2026-04-15 11:20 | 55.53124 | -6.70968 | 33706 ft | 532 kts | 304° |
| 2026-04-15 11:21 | 55.57902 | -6.81002 | 33662 ft | 532 kts | 304° |
| 2026-04-15 11:21 | 55.62677 | -6.91064 | 33647 ft | 533 kts | 304° |
| 2026-04-15 11:22 | 55.67440 | -7.01143 | 33636 ft | 534 kts | 304° |
| 2026-04-15 11:22 | 55.72180 | -7.11213 | 33634 ft | 534 kts | 304° |
| 2026-04-15 11:23 | 55.76936 | -7.21363 | 33628 ft | 533 kts | 304° |
| 2026-04-15 11:23 | 55.81678 | -7.31523 | 33626 ft | 533 kts | 304° |
| 2026-04-15 11:24 | 55.86402 | -7.41698 | 33640 ft | 532 kts | 304° |
| 2026-04-15 11:24 | 55.91109 | -7.51868 | 33624 ft | 531 kts | 304° |
| 2026-04-15 11:25 | 55.95813 | -7.62073 | 33615 ft | 531 kts | 304° |
| 2026-04-15 11:25 | 56.00486 | -7.72256 | 33620 ft | 531 kts | 303° |
| 2026-04-15 11:26 | 56.05175 | -7.82519 | 33614 ft | 531 kts | 303° |
| 2026-04-15 11:26 | 56.09821 | -7.92733 | 33610 ft | 533 kts | 303° |
| 2026-04-15 11:27 | 56.14501 | -8.03068 | 33650 ft | 532 kts | 304° |
| 2026-04-15 11:27 | 56.19165 | -8.13406 | 33608 ft | 531 kts | 304° |
| 2026-04-15 11:28 | 56.23808 | -8.23737 | 33609 ft | 531 kts | 304° |
| 2026-04-15 11:28 | 56.28415 | -8.34035 | 33601 ft | 531 kts | 303° |
| 2026-04-15 11:29 | 56.33048 | -8.44438 | 33601 ft | 533 kts | 303° |
| 2026-04-15 11:29 | 56.37695 | -8.54921 | 33592 ft | 534 kts | 303° |
| 2026-04-15 11:30 | 56.42341 | -8.65443 | 33593 ft | 534 kts | 303° |
| 2026-04-15 11:30 | 56.46952 | -8.75938 | 33600 ft | 530 kts | 303° |
| 2026-04-15 11:31 | 56.51510 | -8.86349 | 33586 ft | 530 kts | 303° |
| 2026-04-15 11:31 | 56.56096 | -8.96871 | 33582 ft | 532 kts | 303° |
| 2026-04-15 11:32 | 56.60683 | -9.07443 | 33581 ft | 533 kts | 303° |
| 2026-04-15 11:32 | 56.65262 | -9.18042 | 33575 ft | 533 kts | 303° |
| 2026-04-15 11:33 | 56.69837 | -9.28678 | 33575 ft | 533 kts | 303° |
| 2026-04-15 11:33 | 56.74370 | -9.39269 | 33605 ft | 532 kts | 303° |
| 2026-04-15 11:34 | 56.78904 | -9.49909 | 33569 ft | 531 kts | 303° |
| 2026-04-15 11:34 | 56.83441 | -9.60592 | 33560 ft | 531 kts | 303° |
| 2026-04-15 11:35 | 56.87974 | -9.71314 | 33555 ft | 531 kts | 303° |
| 2026-04-15 11:35 | 56.92477 | -9.82021 | 33555 ft | 536 kts | 303° |
| 2026-04-15 11:36 | 56.97057 | -9.92912 | 33546 ft | 539 kts | 304° |
| 2026-04-15 11:36 | 57.02081 | -10.03225 | 33544 ft | 545 kts | 311° |
| 2026-04-15 11:37 | 57.06727 | -10.11109 | 33566 ft | 547 kts | 315° |
| 2026-04-15 11:37 | 57.12462 | -10.20309 | 33545 ft | 546 kts | 316° |
| 2026-04-15 11:38 | 57.18196 | -10.29542 | 33540 ft | 546 kts | 316° |
| 2026-04-15 11:38 | 57.23849 | -10.38737 | 33539 ft | 541 kts | 315° |
| 2026-04-15 11:39 | 57.29498 | -10.47992 | 33537 ft | 542 kts | 315° |
| 2026-04-15 11:39 | 57.35138 | -10.57279 | 33532 ft | 542 kts | 315° |
| 2026-04-15 11:40 | 57.40765 | -10.66585 | 33531 ft | 542 kts | 315° |
| 2026-04-15 11:40 | 57.46358 | -10.75875 | 33532 ft | 541 kts | 315° |
| 2026-04-15 11:41 | 57.51982 | -10.85257 | 33528 ft | 543 kts | 315° |
| 2026-04-15 11:41 | 57.57586 | -10.94645 | 33541 ft | 540 kts | 315° |
| 2026-04-15 11:42 | 57.63168 | -11.04034 | 33528 ft | 539 kts | 315° |
| 2026-04-15 11:42 | 57.68711 | -11.13398 | 33526 ft | 539 kts | 315° |
| 2026-04-15 11:43 | 57.74267 | -11.22828 | 33514 ft | 540 kts | 315° |
| 2026-04-15 11:43 | 57.79843 | -11.32331 | 33520 ft | 541 kts | 315° |
| 2026-04-15 11:44 | 57.85419 | -11.41875 | 33517 ft | 541 kts | 315° |
| 2026-04-15 11:44 | 57.90982 | -11.51438 | 33517 ft | 541 kts | 314° |
| 2026-04-15 11:45 | 57.96507 | -11.60979 | 33508 ft | 541 kts | 314° |
| 2026-04-15 11:45 | 58.02050 | -11.70593 | 33558 ft | 542 kts | 314° |
| 2026-04-15 11:46 | 58.07575 | -11.80224 | 33522 ft | 538 kts | 314° |
| 2026-04-15 11:46 | 58.13044 | -11.89790 | 33507 ft | 537 kts | 314° |
| 2026-04-15 11:47 | 58.18542 | -11.99450 | 33500 ft | 537 kts | 314° |
| 2026-04-15 11:47 | 58.24019 | -12.09119 | 33503 ft | 537 kts | 314° |
| 2026-04-15 11:48 | 58.29465 | -12.18774 | 33505 ft | 537 kts | 314° |
| 2026-04-15 11:48 | 58.34926 | -12.28501 | 33500 ft | 537 kts | 314° |
| 2026-04-15 11:49 | 58.40380 | -12.38256 | 33498 ft | 537 kts | 314° |
| 2026-04-15 11:49 | 58.45833 | -12.48054 | 33489 ft | 538 kts | 314° |
| 2026-04-15 11:50 | 58.51287 | -12.57898 | 33506 ft | 538 kts | 314° |
| 2026-04-15 11:50 | 58.56674 | -12.67673 | 33496 ft | 534 kts | 314° |
| 2026-04-15 11:51 | 58.62068 | -12.77493 | 33494 ft | 534 kts | 314° |
| 2026-04-15 11:51 | 58.67466 | -12.87364 | 33482 ft | 534 kts | 314° |
| 2026-04-15 11:52 | 58.72817 | -12.97198 | 33487 ft | 535 kts | 314° |
| 2026-04-15 11:52 | 58.78194 | -13.07121 | 33491 ft | 535 kts | 314° |
| 2026-04-15 11:53 | 58.83567 | -13.17083 | 33490 ft | 534 kts | 314° |
| 2026-04-15 11:53 | 58.88937 | -13.27083 | 33492 ft | 534 kts | 314° |
| 2026-04-15 11:54 | 58.94259 | -13.37042 | 33485 ft | 536 kts | 314° |
| 2026-04-15 11:54 | 58.99631 | -13.47137 | 33486 ft | 536 kts | 313° |
| 2026-04-15 11:55 | 59.04986 | -13.57246 | 33489 ft | 536 kts | 313° |
| 2026-04-15 11:55 | 59.10302 | -13.67329 | 33485 ft | 536 kts | 313° |
| 2026-04-15 11:56 | 59.15646 | -13.77511 | 33464 ft | 536 kts | 313° |
| 2026-04-15 11:56 | 59.20997 | -13.87758 | 33489 ft | 538 kts | 313° |
| 2026-04-15 11:57 | 59.28973 | -14.03114 | 33481 ft | 539 kts | 313° |
| 2026-04-15 11:58 | 59.34310 | -14.13450 | 33489 ft | 538 kts | 313° |
| 2026-04-15 11:58 | 59.39636 | -14.23813 | 33497 ft | 538 kts | 313° |
| 2026-04-15 11:59 | 59.44962 | -14.34226 | 33479 ft | 540 kts | 313° |
| 2026-04-15 11:59 | 59.50255 | -14.44624 | 33511 ft | 538 kts | 313° |
| 2026-04-15 12:00 | 59.55540 | -14.55051 | 33491 ft | 536 kts | 313° |
| 2026-04-15 12:00 | 59.60804 | -14.65488 | 33493 ft | 536 kts | 313° |
| 2026-04-15 12:01 | 59.66038 | -14.75915 | 33489 ft | 537 kts | 312° |
| 2026-04-15 12:01 | 59.71295 | -14.86436 | 33486 ft | 537 kts | 312° |
| 2026-04-15 12:02 | 59.76550 | -14.97004 | 33486 ft | 537 kts | 312° |
| 2026-04-15 12:02 | 59.81784 | -15.07581 | 33489 ft | 537 kts | 312° |
| 2026-04-15 12:03 | 59.87033 | -15.18239 | 33489 ft | 537 kts | 312° |
| 2026-04-15 12:03 | 59.92231 | -15.28840 | 33482 ft | 539 kts | 311° |
| 2026-04-15 12:04 | 59.97470 | -15.39581 | 33540 ft | 539 kts | 312° |
| 2026-04-15 12:04 | 60.02663 | -15.50282 | 33502 ft | 534 kts | 312° |
| 2026-04-15 12:05 | 60.07836 | -15.60988 | 33501 ft | 534 kts | 311° |
| 2026-04-15 12:05 | 60.12995 | -15.71716 | 33488 ft | 534 kts | 311° |
| 2026-04-15 12:06 | 60.18125 | -15.82438 | 33487 ft | 535 kts | 311° |
| 2026-04-15 12:06 | 60.23295 | -15.93294 | 33496 ft | 535 kts | 311° |
| 2026-04-15 12:07 | 60.28432 | -16.04136 | 33489 ft | 535 kts | 311° |
| 2026-04-15 12:07 | 60.33538 | -16.14961 | 33492 ft | 535 kts | 311° |
| 2026-04-15 12:08 | 60.38671 | -16.25897 | 33489 ft | 536 kts | 311° |
| 2026-04-15 12:08 | 60.43798 | -16.36874 | 33485 ft | 536 kts | 311° |
| 2026-04-15 12:09 | 60.48907 | -16.47876 | 33494 ft | 533 kts | 311° |
| 2026-04-15 12:09 | 60.53986 | -16.58855 | 33490 ft | 532 kts | 311° |
| 2026-04-15 12:10 | 60.59014 | -16.69777 | 33492 ft | 532 kts | 311° |
| 2026-04-15 12:10 | 60.64071 | -16.80821 | 33492 ft | 532 kts | 310° |
| 2026-04-15 12:11 | 60.69119 | -16.91898 | 33489 ft | 532 kts | 310° |
| 2026-04-15 12:11 | 60.74163 | -17.03021 | 33490 ft | 532 kts | 310° |
| 2026-04-15 12:12 | 60.79159 | -17.14093 | 33490 ft | 532 kts | 310° |
| 2026-04-15 12:12 | 60.84178 | -17.25274 | 33484 ft | 532 kts | 310° |
| 2026-04-15 12:13 | 60.89195 | -17.36505 | 33489 ft | 532 kts | 310° |
| 2026-04-15 12:13 | 60.94164 | -17.47685 | 33524 ft | 531 kts | 310° |
| 2026-04-15 12:14 | 60.99119 | -17.58886 | 33489 ft | 528 kts | 310° |
| 2026-04-15 12:14 | 61.04077 | -17.70151 | 33487 ft | 528 kts | 310° |
| 2026-04-15 12:15 | 61.09011 | -17.81419 | 33484 ft | 529 kts | 310° |
| 2026-04-15 12:15 | 61.13944 | -17.92742 | 33486 ft | 529 kts | 310° |
| 2026-04-15 12:16 | 61.18862 | -18.04086 | 33489 ft | 529 kts | 309° |
| 2026-04-15 12:16 | 61.23780 | -18.15489 | 33486 ft | 529 kts | 309° |
| 2026-04-15 12:17 | 61.28655 | -18.26850 | 33487 ft | 529 kts | 309° |
| 2026-04-15 12:17 | 61.33562 | -18.38344 | 33487 ft | 530 kts | 309° |
| 2026-04-15 12:18 | 61.38464 | -18.49883 | 33490 ft | 530 kts | 309° |
| 2026-04-15 12:18 | 61.43304 | -18.61342 | 33503 ft | 527 kts | 309° |
| 2026-04-15 12:19 | 61.48151 | -18.72868 | 33494 ft | 526 kts | 309° |
| 2026-04-15 12:19 | 61.52985 | -18.84420 | 33477 ft | 526 kts | 309° |
| 2026-04-15 12:20 | 61.57801 | -18.95992 | 33488 ft | 526 kts | 309° |
| 2026-04-15 12:20 | 61.62610 | -19.07606 | 33484 ft | 526 kts | 309° |
| 2026-04-15 12:21 | 61.67381 | -19.19189 | 33487 ft | 526 kts | 309° |
| 2026-04-15 12:21 | 61.72164 | -19.30859 | 33487 ft | 526 kts | 309° |
| 2026-04-15 12:22 | 61.76937 | -19.42566 | 33479 ft | 526 kts | 309° |
| 2026-04-15 12:22 | 61.81701 | -19.54310 | 33479 ft | 526 kts | 308° |
| 2026-04-15 12:23 | 61.86455 | -19.66093 | 33484 ft | 526 kts | 308° |
| 2026-04-15 12:23 | 61.91181 | -19.77873 | 33497 ft | 521 kts | 308° |
| 2026-04-15 12:24 | 61.95864 | -19.89597 | 33488 ft | 520 kts | 308° |
| 2026-04-15 12:24 | 62.00557 | -20.01297 | 33470 ft | 520 kts | 310° |
| 2026-04-15 12:25 | 62.05454 | -20.12714 | 33475 ft | 521 kts | 311° |
| 2026-04-15 12:25 | 62.10347 | -20.24016 | 33478 ft | 521 kts | 311° |
| 2026-04-15 12:26 | 62.15251 | -20.35428 | 33478 ft | 521 kts | 311° |
| 2026-04-15 12:26 | 62.20145 | -20.46897 | 33473 ft | 521 kts | 311° |
| 2026-04-15 12:27 | 62.24210 | -20.56476 | 33471 ft | 521 kts | 310° |
| 2026-04-15 12:27 | 62.29094 | -20.68042 | 33472 ft | 521 kts | 310° |
| 2026-04-15 12:28 | 62.33963 | -20.79635 | 33473 ft | 521 kts | 310° |
| 2026-04-15 12:28 | 62.38796 | -20.91201 | 33504 ft | 521 kts | 310° |
| 2026-04-15 12:29 | 62.43612 | -21.02798 | 33471 ft | 516 kts | 310° |
| 2026-04-15 12:29 | 62.48414 | -21.14403 | 33464 ft | 517 kts | 310° |
| 2026-04-15 12:30 | 62.53193 | -21.26016 | 33465 ft | 517 kts | 310° |
| 2026-04-15 12:30 | 62.57941 | -21.37618 | 33471 ft | 517 kts | 310° |
| 2026-04-15 12:31 | 62.62711 | -21.49335 | 33463 ft | 517 kts | 310° |
| 2026-04-15 12:31 | 62.67475 | -21.61099 | 33461 ft | 517 kts | 310° |
| 2026-04-15 12:32 | 62.72200 | -21.72829 | 33462 ft | 516 kts | 310° |
| 2026-04-15 12:32 | 62.76927 | -21.84624 | 33463 ft | 516 kts | 310° |
| 2026-04-15 12:33 | 62.81648 | -21.96468 | 33441 ft | 516 kts | 310° |
| 2026-04-15 12:33 | 62.86357 | -22.08349 | 33454 ft | 516 kts | 309° |
| 2026-04-15 12:34 | 62.91052 | -22.20255 | 33452 ft | 516 kts | 309° |
| 2026-04-15 12:34 | 62.95699 | -22.32114 | 33451 ft | 512 kts | 310° |
| 2026-04-15 12:35 | 63.00339 | -22.44000 | 33453 ft | 512 kts | 310° |
| 2026-04-15 12:35 | 63.04983 | -22.55963 | 33441 ft | 512 kts | 309° |
| 2026-04-15 12:36 | 63.09606 | -22.67936 | 33441 ft | 512 kts | 309° |
| 2026-04-15 12:36 | 63.14223 | -22.79958 | 33445 ft | 512 kts | 309° |
| 2026-04-15 12:37 | 63.18793 | -22.91923 | 33436 ft | 511 kts | 309° |
| 2026-04-15 12:37 | 63.23379 | -23.03997 | 33433 ft | 511 kts | 309° |
| 2026-04-15 12:38 | 63.27955 | -23.16108 | 33432 ft | 511 kts | 309° |
| 2026-04-15 12:38 | 63.32514 | -23.28242 | 33433 ft | 511 kts | 309° |
| 2026-04-15 12:39 | 63.37069 | -23.40428 | 33427 ft | 511 kts | 309° |
| 2026-04-15 12:39 | 63.41582 | -23.52570 | 33425 ft | 511 kts | 309° |
| 2026-04-15 12:40 | 63.46111 | -23.64829 | 33434 ft | 510 kts | 309° |
| 2026-04-15 12:40 | 63.50623 | -23.77102 | 33424 ft | 509 kts | 309° |
| 2026-04-15 12:41 | 63.55100 | -23.89342 | 33424 ft | 509 kts | 308° |
| 2026-04-15 12:41 | 63.59587 | -24.01677 | 33424 ft | 509 kts | 308° |
| 2026-04-15 12:42 | 63.64074 | -24.14082 | 33414 ft | 512 kts | 308° |
| 2026-04-15 12:42 | 63.68560 | -24.26557 | 33417 ft | 511 kts | 308° |
| 2026-04-15 12:43 | 63.73001 | -24.38976 | 33421 ft | 511 kts | 308° |
| 2026-04-15 12:43 | 63.77466 | -24.51529 | 33425 ft | 511 kts | 308° |
| 2026-04-15 12:44 | 63.81916 | -24.64110 | 33422 ft | 511 kts | 308° |
| 2026-04-15 12:44 | 63.86356 | -24.76734 | 33428 ft | 511 kts | 308° |
| 2026-04-15 12:45 | 63.90781 | -24.89388 | 33433 ft | 510 kts | 307° |
| 2026-04-15 12:45 | 63.95152 | -25.01959 | 33433 ft | 510 kts | 307° |
| 2026-04-15 12:46 | 63.99547 | -25.14669 | 33434 ft | 510 kts | 307° |
| 2026-04-15 12:46 | 64.03932 | -25.27423 | 33437 ft | 511 kts | 307° |
| 2026-04-15 12:47 | 64.08313 | -25.40233 | 33450 ft | 511 kts | 307° |
| 2026-04-15 12:47 | 64.12654 | -25.53008 | 33451 ft | 509 kts | 307° |
| 2026-04-15 12:48 | 64.16996 | -25.65855 | 33459 ft | 510 kts | 307° |
| 2026-04-15 12:48 | 64.21339 | -25.78780 | 33462 ft | 511 kts | 306° |
| 2026-04-15 12:49 | 64.25680 | -25.91773 | 33474 ft | 511 kts | 306° |
| 2026-04-15 12:49 | 64.29970 | -26.04680 | 33481 ft | 511 kts | 306° |
| 2026-04-15 12:50 | 64.34274 | -26.17718 | 33487 ft | 510 kts | 306° |
| 2026-04-15 12:50 | 64.38544 | -26.30723 | 33497 ft | 511 kts | 306° |
| 2026-04-15 12:51 | 64.42835 | -26.43865 | 33490 ft | 512 kts | 306° |
| 2026-04-15 12:51 | 64.47119 | -26.57079 | 33506 ft | 509 kts | 306° |
| 2026-04-15 12:52 | 64.51366 | -26.70227 | 33515 ft | 508 kts | 306° |
| 2026-04-15 12:52 | 64.55575 | -26.83341 | 33508 ft | 505 kts | 305° |
| 2026-04-15 12:53 | 64.59752 | -26.96434 | 33524 ft | 507 kts | 305° |
| 2026-04-15 12:53 | 64.63945 | -27.09668 | 33525 ft | 508 kts | 305° |
| 2026-04-15 12:54 | 64.68139 | -27.22998 | 33537 ft | 507 kts | 305° |
| 2026-04-15 12:54 | 64.72313 | -27.36312 | 33536 ft | 507 kts | 304° |
| 2026-04-15 12:55 | 64.76446 | -27.49584 | 33550 ft | 500 kts | 304° |
| 2026-04-15 12:55 | 64.80553 | -27.62835 | 33553 ft | 507 kts | 304° |
| 2026-04-15 12:56 | 64.84690 | -27.76266 | 33566 ft | 510 kts | 303° |
| 2026-04-15 12:56 | 64.88845 | -27.89861 | 33566 ft | 509 kts | 304° |
| 2026-04-15 12:57 | 64.92942 | -28.03339 | 33581 ft | 507 kts | 303° |
| 2026-04-15 12:57 | 64.96970 | -28.16683 | 33587 ft | 497 kts | 304° |
| 2026-04-15 12:58 | 65.00968 | -28.29958 | 33601 ft | 497 kts | 303° |
| 2026-04-15 12:58 | 65.04969 | -28.43369 | 33606 ft | 497 kts | 303° |
| 2026-04-15 12:59 | 65.10968 | -28.63632 | 33623 ft | 499 kts | 303° |
| 2026-04-15 12:59 | 65.14910 | -28.77035 | 33622 ft | 498 kts | 303° |
| 2026-04-15 13:00 | 65.18863 | -28.90564 | 33639 ft | 494 kts | 303° |
| 2026-04-15 13:00 | 65.22788 | -29.04049 | 33643 ft | 496 kts | 302° |
| 2026-04-15 13:01 | 65.26713 | -29.17645 | 33647 ft | 495 kts | 303° |
| 2026-04-15 13:01 | 65.30613 | -29.31215 | 33649 ft | 498 kts | 303° |
| 2026-04-15 13:02 | 65.34549 | -29.45024 | 33661 ft | 497 kts | 302° |
| 2026-04-15 13:02 | 65.38418 | -29.58639 | 33665 ft | 497 kts | 302° |
| 2026-04-15 13:03 | 65.42285 | -29.72377 | 33700 ft | 493 kts | 303° |
| 2026-04-15 13:03 | 65.46111 | -29.86025 | 33690 ft | 492 kts | 302° |
| 2026-04-15 13:04 | 65.49926 | -29.99670 | 33689 ft | 492 kts | 304° |
| 2026-04-15 13:04 | 65.54000 | -30.13025 | 33707 ft | 496 kts | 305° |
| 2026-04-15 13:05 | 65.58116 | -30.26325 | 33704 ft | 492 kts | 304° |
| 2026-04-15 13:05 | 65.62216 | -30.39646 | 33720 ft | 493 kts | 305° |
| 2026-04-15 13:06 | 65.66286 | -30.52977 | 33724 ft | 493 kts | 304° |
| 2026-04-15 13:06 | 65.70330 | -30.66321 | 33741 ft | 493 kts | 304° |
| 2026-04-15 13:07 | 65.74398 | -30.79846 | 33744 ft | 493 kts | 304° |
| 2026-04-15 13:07 | 65.78435 | -30.93336 | 33767 ft | 491 kts | 305° |
| 2026-04-15 13:08 | 65.82417 | -31.06728 | 33762 ft | 489 kts | 304° |
| 2026-04-15 13:08 | 65.86418 | -31.20245 | 33789 ft | 490 kts | 304° |
| 2026-04-15 13:09 | 65.90407 | -31.33826 | 33782 ft | 491 kts | 304° |
| 2026-04-15 13:09 | 65.94387 | -31.47487 | 33799 ft | 490 kts | 304° |
| 2026-04-15 13:10 | 65.98320 | -31.61031 | 33820 ft | 485 kts | 304° |
| 2026-04-15 13:10 | 66.02200 | -31.74458 | 33811 ft | 479 kts | 303° |
| 2026-04-15 13:11 | 66.06051 | -31.87869 | 33825 ft | 479 kts | 304° |
| 2026-04-15 13:11 | 66.09873 | -32.01283 | 33827 ft | 478 kts | 303° |
| 2026-04-15 13:12 | 66.13687 | -32.14789 | 33825 ft | 479 kts | 304° |
| 2026-04-15 13:12 | 66.17496 | -32.28311 | 33868 ft | 479 kts | 303° |
| 2026-04-15 13:13 | 66.21264 | -32.41789 | 33851 ft | 478 kts | 303° |
| 2026-04-15 13:13 | 66.25035 | -32.55340 | 33846 ft | 477 kts | 303° |
| 2026-04-15 13:14 | 66.28805 | -32.68957 | 33862 ft | 477 kts | 302° |
| 2026-04-15 13:14 | 66.32547 | -32.82609 | 33864 ft | 477 kts | 303° |
| 2026-04-15 13:15 | 66.35664 | -32.94002 | 33875 ft | 477 kts | 302° |
| 2026-04-15 13:15 | 66.39383 | -33.07708 | 33877 ft | 478 kts | 302° |
| 2026-04-15 13:16 | 66.43108 | -33.21481 | 33890 ft | 477 kts | 302° |
| 2026-04-15 13:16 | 66.46798 | -33.35242 | 33885 ft | 477 kts | 302° |
| 2026-04-15 13:17 | 66.50496 | -33.49092 | 33894 ft | 477 kts | 302° |
| 2026-04-15 13:17 | 66.54168 | -33.62972 | 33892 ft | 476 kts | 302° |
| 2026-04-15 13:18 | 66.57799 | -33.76776 | 33893 ft | 475 kts | 302° |
| 2026-04-15 13:18 | 66.61440 | -33.90714 | 33906 ft | 477 kts | 302° |
| 2026-04-15 13:19 | 66.65074 | -34.04693 | 33903 ft | 477 kts | 302° |
| 2026-04-15 13:19 | 66.68695 | -34.18709 | 33912 ft | 477 kts | 302° |
| 2026-04-15 13:20 | 66.72308 | -34.32790 | 33908 ft | 476 kts | 301° |
| 2026-04-15 13:20 | 66.75888 | -34.46835 | 33911 ft | 476 kts | 301° |
| 2026-04-15 13:21 | 66.79479 | -34.60989 | 33919 ft | 476 kts | 301° |
| 2026-04-15 13:21 | 66.83052 | -34.75193 | 33933 ft | 476 kts | 301° |
| 2026-04-15 13:22 | 66.86614 | -34.89420 | 33931 ft | 476 kts | 301° |
| 2026-04-15 13:22 | 66.90161 | -35.03681 | 33945 ft | 476 kts | 300° |
| 2026-04-15 13:23 | 66.93688 | -35.17968 | 33941 ft | 475 kts | 300° |
| 2026-04-15 13:23 | 66.97178 | -35.32225 | 33927 ft | 476 kts | 301° |
| 2026-04-15 13:24 | 67.00682 | -35.46601 | 33946 ft | 476 kts | 300° |
| 2026-04-15 13:24 | 67.04185 | -35.61074 | 33942 ft | 477 kts | 300° |
| 2026-04-15 13:25 | 67.07649 | -35.75447 | 33959 ft | 476 kts | 300° |
| 2026-04-15 13:25 | 67.11118 | -35.89981 | 33961 ft | 476 kts | 299° |
| 2026-04-15 13:26 | 67.14569 | -36.04505 | 33958 ft | 476 kts | 299° |
| 2026-04-15 13:26 | 67.18004 | -36.19084 | 33958 ft | 476 kts | 299° |
| 2026-04-15 13:27 | 67.21434 | -36.33729 | 33955 ft | 476 kts | 298° |
| 2026-04-15 13:27 | 67.24842 | -36.48406 | 33955 ft | 476 kts | 299° |
| 2026-04-15 13:28 | 67.28243 | -36.63127 | 33952 ft | 476 kts | 299° |
| 2026-04-15 13:28 | 67.31618 | -36.77798 | 33951 ft | 476 kts | 298° |
| 2026-04-15 13:29 | 67.34980 | -36.92587 | 33931 ft | 476 kts | 299° |
| 2026-04-15 13:29 | 67.38346 | -37.07423 | 33935 ft | 476 kts | 298° |
| 2026-04-15 13:30 | 67.41685 | -37.22313 | 33924 ft | 476 kts | 297° |
| 2026-04-15 13:30 | 67.45014 | -37.37243 | 33933 ft | 476 kts | 298° |
| 2026-04-15 13:31 | 67.48338 | -37.52201 | 33931 ft | 476 kts | 298° |
| 2026-04-15 13:31 | 67.51644 | -37.67230 | 33949 ft | 476 kts | 298° |
| 2026-04-15 13:32 | 67.54911 | -37.82191 | 33963 ft | 477 kts | 298° |
| 2026-04-15 13:32 | 67.58193 | -37.97296 | 33956 ft | 477 kts | 297° |
| 2026-04-15 13:33 | 67.61461 | -38.12459 | 33969 ft | 477 kts | 297° |
| 2026-04-15 13:33 | 67.64716 | -38.27667 | 33973 ft | 477 kts | 297° |
| 2026-04-15 13:34 | 67.67930 | -38.42795 | 33968 ft | 476 kts | 297° |
| 2026-04-15 13:34 | 67.71154 | -38.58079 | 33984 ft | 476 kts | 297° |
| 2026-04-15 13:35 | 67.74366 | -38.73409 | 33993 ft | 477 kts | 297° |
| 2026-04-15 13:35 | 67.77560 | -38.88772 | 33993 ft | 477 kts | 297° |
| 2026-04-15 13:36 | 67.80743 | -39.04190 | 34003 ft | 477 kts | 296° |
| 2026-04-15 13:36 | 67.83890 | -39.19551 | 34003 ft | 477 kts | 296° |
| 2026-04-15 13:37 | 67.87041 | -39.35040 | 34015 ft | 477 kts | 296° |
| 2026-04-15 13:37 | 67.90177 | -39.50570 | 34030 ft | 477 kts | 296° |
| 2026-04-15 13:38 | 67.93311 | -39.66200 | 34015 ft | 477 kts | 296° |
| 2026-04-15 13:38 | 67.96420 | -39.81847 | 34019 ft | 477 kts | 296° |
| 2026-04-15 13:39 | 67.99422 | -39.97524 | 34017 ft | 476 kts | 292° |
| 2026-04-15 13:39 | 68.01889 | -40.13842 | 34028 ft | 475 kts | 288° |
| 2026-04-15 13:40 | 68.04112 | -40.30482 | 34021 ft | 474 kts | 287° |
| 2026-04-15 13:40 | 68.06295 | -40.47064 | 34039 ft | 475 kts | 287° |
| 2026-04-15 13:41 | 68.08482 | -40.63768 | 34019 ft | 475 kts | 287° |
| 2026-04-15 13:41 | 68.10657 | -40.80523 | 34017 ft | 475 kts | 286° |
| 2026-04-15 13:42 | 68.12816 | -40.97304 | 34011 ft | 475 kts | 286° |
| 2026-04-15 13:42 | 68.14954 | -41.14079 | 34012 ft | 475 kts | 286° |
| 2026-04-15 13:43 | 68.17066 | -41.30810 | 34004 ft | 475 kts | 286° |
| 2026-04-15 13:43 | 68.19175 | -41.47678 | 34020 ft | 475 kts | 285° |
| 2026-04-15 13:44 | 68.21270 | -41.64591 | 34007 ft | 476 kts | 285° |
| 2026-04-15 13:44 | 68.23349 | -41.81572 | 34002 ft | 476 kts | 285° |
| 2026-04-15 13:45 | 68.25400 | -41.98485 | 34016 ft | 476 kts | 285° |
| 2026-04-15 13:47 | 68.33488 | -42.66916 | 34000 ft | 479 kts | 284° |
| 2026-04-15 13:47 | 68.35473 | -42.84169 | 33999 ft | 479 kts | 284° |
| 2026-04-15 13:48 | 68.37438 | -43.01427 | 34004 ft | 479 kts | 283° |
| 2026-04-15 13:48 | 68.39386 | -43.18721 | 34004 ft | 479 kts | 283° |
| 2026-04-15 13:49 | 68.41315 | -43.36039 | 34004 ft | 478 kts | 283° |
| 2026-04-15 13:49 | 68.43213 | -43.53264 | 34016 ft | 478 kts | 283° |
| 2026-04-15 13:50 | 68.45113 | -43.70679 | 33995 ft | 480 kts | 283° |
| 2026-04-15 13:50 | 68.46994 | -43.88143 | 33991 ft | 480 kts | 282° |
| 2026-04-15 13:51 | 68.48855 | -44.05615 | 33994 ft | 480 kts | 282° |
| 2026-04-15 13:51 | 68.50702 | -44.23161 | 33983 ft | 480 kts | 282° |
| 2026-04-15 13:52 | 68.52531 | -44.40727 | 33980 ft | 480 kts | 282° |
| 2026-04-15 13:52 | 68.54341 | -44.58319 | 34004 ft | 480 kts | 282° |
| 2026-04-15 13:53 | 68.56121 | -44.75841 | 33979 ft | 481 kts | 281° |
| 2026-04-15 13:53 | 68.57896 | -44.93519 | 33977 ft | 481 kts | 281° |
| 2026-04-15 13:54 | 68.59653 | -45.11194 | 33978 ft | 481 kts | 281° |
| 2026-04-15 13:54 | 68.61393 | -45.28924 | 33977 ft | 481 kts | 281° |
| 2026-04-15 13:55 | 68.63101 | -45.46557 | 33984 ft | 481 kts | 281° |
| 2026-04-15 13:55 | 68.64806 | -45.64375 | 33990 ft | 480 kts | 281° |
| 2026-04-15 13:56 | 68.66487 | -45.82156 | 34017 ft | 480 kts | 280° |
| 2026-04-15 13:56 | 68.68153 | -46.00002 | 34004 ft | 480 kts | 280° |
| 2026-04-15 13:57 | 68.69781 | -46.17691 | 33999 ft | 480 kts | 280° |
| 2026-04-15 13:57 | 68.71404 | -46.35553 | 34002 ft | 480 kts | 280° |
| 2026-04-15 13:58 | 68.73014 | -46.53494 | 34002 ft | 480 kts | 279° |
| 2026-04-15 13:58 | 68.74590 | -46.71295 | 34046 ft | 480 kts | 279° |
| 2026-04-15 13:59 | 68.76161 | -46.89273 | 34025 ft | 482 kts | 279° |
| 2026-04-15 13:59 | 68.77715 | -47.07308 | 34020 ft | 482 kts | 279° |
| 2026-04-15 14:00 | 68.79253 | -47.25393 | 34027 ft | 482 kts | 279° |
| 2026-04-15 14:00 | 68.80759 | -47.43356 | 34030 ft | 482 kts | 279° |
| 2026-04-15 14:01 | 68.82995 | -47.70512 | 34015 ft | 482 kts | 278° |
| 2026-04-15 14:02 | 68.84469 | -47.88713 | 34045 ft | 484 kts | 278° |
| 2026-04-15 14:02 | 68.85922 | -48.06955 | 33997 ft | 484 kts | 278° |
| 2026-04-15 14:03 | 68.87347 | -48.25106 | 33980 ft | 484 kts | 278° |
| 2026-04-15 14:03 | 68.88762 | -48.43396 | 33984 ft | 484 kts | 277° |
| 2026-04-15 14:04 | 68.90161 | -48.61750 | 33956 ft | 484 kts | 277° |
| 2026-04-15 14:04 | 68.91306 | -48.76991 | 33955 ft | 484 kts | 277° |
| 2026-04-15 14:05 | 68.92666 | -48.95361 | 33950 ft | 484 kts | 277° |
| 2026-04-15 14:05 | 68.94005 | -49.13739 | 33910 ft | 485 kts | 277° |
| 2026-04-15 14:06 | 68.95327 | -49.32172 | 33906 ft | 485 kts | 277° |
| 2026-04-15 14:06 | 68.96620 | -49.50497 | 33866 ft | 484 kts | 277° |
| 2026-04-15 14:07 | 68.97900 | -49.68962 | 33862 ft | 484 kts | 276° |
| 2026-04-15 14:07 | 68.99159 | -49.87455 | 33814 ft | 485 kts | 276° |
| 2026-04-15 14:08 | 69.00174 | -50.06057 | 33819 ft | 483 kts | 271° |
| 2026-04-15 14:08 | 69.00721 | -50.24682 | 33804 ft | 483 kts | 270° |
| 2026-04-15 14:09 | 69.01222 | -50.43416 | 33785 ft | 483 kts | 270° |
| 2026-04-15 14:09 | 69.01707 | -50.62192 | 33765 ft | 483 kts | 270° |
| 2026-04-15 14:10 | 69.02172 | -50.80829 | 33736 ft | 483 kts | 269° |
| 2026-04-15 14:10 | 69.02622 | -50.99611 | 33733 ft | 483 kts | 269° |
| 2026-04-15 14:11 | 69.03050 | -51.18357 | 33733 ft | 483 kts | 269° |
| 2026-04-15 14:11 | 69.03458 | -51.37027 | 33743 ft | 484 kts | 269° |
| 2026-04-15 14:12 | 69.03846 | -51.55889 | 33773 ft | 485 kts | 268° |
| 2026-04-15 14:12 | 69.04213 | -51.74619 | 33757 ft | 485 kts | 268° |
| 2026-04-15 14:13 | 69.04560 | -51.93481 | 33755 ft | 485 kts | 268° |
| 2026-04-15 14:13 | 69.04886 | -52.12301 | 33755 ft | 485 kts | 268° |
| 2026-04-15 14:14 | 69.05193 | -52.31167 | 33755 ft | 485 kts | 268° |
| 2026-04-15 14:14 | 69.05478 | -52.50030 | 33775 ft | 485 kts | 268° |
| 2026-04-15 14:15 | 69.05743 | -52.69005 | 33750 ft | 487 kts | 267° |
| 2026-04-15 14:15 | 69.05989 | -52.87955 | 33747 ft | 487 kts | 267° |
| 2026-04-15 14:16 | 69.06212 | -53.06780 | 33746 ft | 487 kts | 267° |
| 2026-04-15 14:16 | 69.06416 | -53.25797 | 33746 ft | 487 kts | 267° |
| 2026-04-15 14:17 | 69.06597 | -53.44779 | 33742 ft | 488 kts | 267° |
| 2026-04-15 14:17 | 69.06759 | -53.63720 | 33736 ft | 488 kts | 266° |
| 2026-04-15 14:18 | 69.06899 | -53.82808 | 33735 ft | 490 kts | 266° |
| 2026-04-15 14:18 | 69.07019 | -54.01763 | 33725 ft | 490 kts | 266° |
| 2026-04-15 14:19 | 69.07118 | -54.20869 | 33716 ft | 490 kts | 266° |
| 2026-04-15 14:19 | 69.07196 | -54.39992 | 33715 ft | 490 kts | 266° |
| 2026-04-15 14:20 | 69.07253 | -54.59093 | 33718 ft | 490 kts | 266° |
| 2026-04-15 14:20 | 69.07289 | -54.78044 | 33715 ft | 489 kts | 265° |
| 2026-04-15 14:21 | 69.07303 | -54.97172 | 33714 ft | 491 kts | 265° |
| 2026-04-15 14:21 | 69.07293 | -55.16315 | 33727 ft | 493 kts | 265° |
| 2026-04-15 14:22 | 69.07264 | -55.35561 | 33712 ft | 493 kts | 265° |
| 2026-04-15 14:22 | 69.07215 | -55.54784 | 33707 ft | 493 kts | 265° |
| 2026-04-15 14:23 | 69.07144 | -55.73873 | 33707 ft | 493 kts | 265° |
| 2026-04-15 14:23 | 69.07050 | -55.93086 | 33705 ft | 493 kts | 264° |
| 2026-04-15 14:24 | 69.06936 | -56.12293 | 33725 ft | 493 kts | 264° |
| 2026-04-15 14:24 | 69.06798 | -56.31441 | 33705 ft | 494 kts | 264° |
| 2026-04-15 14:25 | 69.06641 | -56.50723 | 33706 ft | 494 kts | 264° |
| 2026-04-15 14:25 | 69.06462 | -56.69993 | 33700 ft | 494 kts | 264° |
| 2026-04-15 14:26 | 69.06263 | -56.89126 | 33711 ft | 494 kts | 263° |
| 2026-04-15 14:26 | 69.06040 | -57.08351 | 33737 ft | 493 kts | 263° |
| 2026-04-15 14:26 | 69.05921 | -57.17960 | 33966 ft | 492 kts | 263° |
| 2026-04-15 14:27 | 69.05795 | -57.27561 | 34201 ft | 492 kts | 263° |
| 2026-04-15 14:27 | 69.05665 | -57.37137 | 34426 ft | 492 kts | 263° |
| 2026-04-15 14:27 | 69.05530 | -57.46713 | 34661 ft | 492 kts | 263° |
| 2026-04-15 14:27 | 69.05390 | -57.56181 | 34893 ft | 492 kts | 263° |
| 2026-04-15 14:28 | 69.05244 | -57.65775 | 35131 ft | 492 kts | 263° |
| 2026-04-15 14:28 | 69.05093 | -57.75326 | 35367 ft | 492 kts | 263° |
| 2026-04-15 14:28 | 69.04937 | -57.84917 | 35612 ft | 492 kts | 263° |
| 2026-04-15 14:29 | 69.04608 | -58.04070 | 35685 ft | 493 kts | 263° |
| 2026-04-15 14:29 | 69.04259 | -58.23234 | 35689 ft | 492 kts | 263° |
| 2026-04-15 14:30 | 69.03889 | -58.42281 | 35687 ft | 492 kts | 263° |
| 2026-04-15 14:30 | 69.03495 | -58.61429 | 35714 ft | 494 kts | 262° |
| 2026-04-15 14:31 | 69.03078 | -58.80666 | 35685 ft | 495 kts | 262° |
| 2026-04-15 14:31 | 69.02641 | -58.99884 | 35689 ft | 495 kts | 262° |
| 2026-04-15 14:32 | 69.02181 | -59.19094 | 35679 ft | 495 kts | 262° |
| 2026-04-15 14:32 | 69.01700 | -59.38292 | 35675 ft | 495 kts | 262° |
| 2026-04-15 14:33 | 69.01200 | -59.57370 | 35672 ft | 495 kts | 261° |
| 2026-04-15 14:33 | 69.00674 | -59.76585 | 35697 ft | 495 kts | 261° |
| 2026-04-15 14:34 | 69.00121 | -59.95813 | 35676 ft | 497 kts | 261° |
| 2026-04-15 14:34 | 68.99758 | -60.14926 | 35666 ft | 498 kts | 263° |
| 2026-04-15 14:35 | 68.99443 | -60.34244 | 35681 ft | 498 kts | 263° |
| 2026-04-15 14:35 | 68.99104 | -60.53613 | 35658 ft | 499 kts | 263° |
| 2026-04-15 14:36 | 68.98741 | -60.72985 | 35651 ft | 499 kts | 263° |
| 2026-04-15 14:36 | 68.98354 | -60.92323 | 35650 ft | 499 kts | 263° |
| 2026-04-15 14:37 | 68.97945 | -61.11554 | 35649 ft | 500 kts | 263° |
| 2026-04-15 14:37 | 68.97513 | -61.30972 | 35646 ft | 500 kts | 263° |
| 2026-04-15 14:38 | 68.97058 | -61.50359 | 35648 ft | 500 kts | 262° |
| 2026-04-15 14:38 | 68.96580 | -61.69757 | 35646 ft | 500 kts | 262° |
| 2026-04-15 14:39 | 68.96081 | -61.88973 | 35634 ft | 500 kts | 262° |
| 2026-04-15 14:39 | 68.95508 | -62.08269 | 35632 ft | 500 kts | 261° |
| 2026-04-15 14:40 | 68.94842 | -62.27581 | 35626 ft | 501 kts | 261° |
| 2026-04-15 14:40 | 68.94159 | -62.46918 | 35607 ft | 501 kts | 261° |
| 2026-04-15 14:41 | 68.93463 | -62.66138 | 35609 ft | 501 kts | 261° |
| 2026-04-15 14:41 | 68.92742 | -62.85473 | 35605 ft | 501 kts | 261° |
| 2026-04-15 14:42 | 68.92001 | -63.04721 | 35609 ft | 501 kts | 260° |
| 2026-04-15 14:42 | 68.91237 | -63.24021 | 35603 ft | 501 kts | 260° |
| 2026-04-15 14:43 | 68.90453 | -63.43175 | 35599 ft | 502 kts | 260° |
| 2026-04-15 14:43 | 68.89644 | -63.62491 | 35598 ft | 503 kts | 260° |
| 2026-04-15 14:44 | 68.88814 | -63.81800 | 35602 ft | 503 kts | 260° |
| 2026-04-15 14:44 | 68.87961 | -64.01048 | 35602 ft | 503 kts | 260° |
| 2026-04-15 14:45 | 68.87090 | -64.20238 | 35586 ft | 503 kts | 260° |
| 2026-04-15 14:45 | 68.86194 | -64.39496 | 35600 ft | 503 kts | 259° |
| 2026-04-15 14:46 | 68.85273 | -64.58779 | 35592 ft | 505 kts | 259° |
| 2026-04-15 14:46 | 68.84328 | -64.78113 | 35603 ft | 506 kts | 259° |
| 2026-04-15 14:47 | 68.83361 | -64.97417 | 35604 ft | 505 kts | 259° |
| 2026-04-15 14:47 | 68.82373 | -65.16677 | 35602 ft | 505 kts | 259° |
| 2026-04-15 14:48 | 68.81362 | -65.35966 | 35622 ft | 506 kts | 259° |
| 2026-04-15 14:48 | 68.80336 | -65.55108 | 35622 ft | 506 kts | 258° |
| 2026-04-15 14:49 | 68.79280 | -65.74393 | 35649 ft | 510 kts | 257° |
| 2026-04-15 14:49 | 68.78185 | -65.93881 | 35637 ft | 511 kts | 257° |
| 2026-04-15 14:50 | 68.77075 | -66.13323 | 35653 ft | 513 kts | 258° |
| 2026-04-15 14:50 | 68.75940 | -66.32772 | 35656 ft | 514 kts | 257° |
| 2026-04-15 14:51 | 68.74781 | -66.52171 | 35650 ft | 512 kts | 257° |
| 2026-04-15 14:51 | 68.73608 | -66.71437 | 35676 ft | 511 kts | 257° |
| 2026-04-15 14:52 | 68.72605 | -66.87593 | 35683 ft | 512 kts | 257° |
| 2026-04-15 14:52 | 68.71388 | -67.06899 | 35691 ft | 513 kts | 257° |
| 2026-04-15 14:53 | 68.70147 | -67.26271 | 35688 ft | 513 kts | 256° |
| 2026-04-15 14:53 | 68.68878 | -67.45560 | 35710 ft | 509 kts | 257° |
| 2026-04-15 14:54 | 68.67603 | -67.64707 | 35700 ft | 508 kts | 257° |
| 2026-04-15 14:54 | 68.66314 | -67.83710 | 35699 ft | 508 kts | 257° |
| 2026-04-15 14:55 | 68.64993 | -68.02800 | 35699 ft | 507 kts | 257° |
| 2026-04-15 14:55 | 68.63656 | -68.21811 | 35692 ft | 506 kts | 257° |
| 2026-04-15 14:56 | 68.62300 | -68.40807 | 35692 ft | 506 kts | 257° |
| 2026-04-15 14:56 | 68.60923 | -68.59753 | 35689 ft | 506 kts | 257° |
| 2026-04-15 14:57 | 68.59533 | -68.78554 | 35687 ft | 506 kts | 256° |
| 2026-04-15 14:57 | 68.58111 | -68.97487 | 35686 ft | 506 kts | 256° |
| 2026-04-15 14:58 | 68.56670 | -69.16332 | 35707 ft | 505 kts | 256° |
| 2026-04-15 14:58 | 68.55223 | -69.34973 | 35682 ft | 502 kts | 256° |
| 2026-04-15 14:59 | 68.53750 | -69.53683 | 35685 ft | 502 kts | 256° |
| 2026-04-15 14:59 | 68.52256 | -69.72363 | 35684 ft | 502 kts | 256° |
| 2026-04-15 15:00 | 68.50737 | -69.91013 | 35689 ft | 502 kts | 256° |
| 2026-04-15 15:00 | 68.48966 | -70.09303 | 35697 ft | 501 kts | 251° |
| 2026-04-15 15:01 | 68.46904 | -70.27517 | 35684 ft | 502 kts | 251° |
| 2026-04-15 15:01 | 68.44822 | -70.45719 | 35684 ft | 503 kts | 251° |
| 2026-04-15 15:02 | 68.42736 | -70.63802 | 35699 ft | 503 kts | 251° |
| 2026-04-15 15:02 | 68.40620 | -70.81930 | 35716 ft | 503 kts | 251° |
| 2026-04-15 15:03 | 68.38486 | -71.00008 | 35708 ft | 503 kts | 251° |
| 2026-04-15 15:03 | 68.36328 | -71.18097 | 35711 ft | 503 kts | 251° |
| 2026-04-15 15:04 | 68.34151 | -71.36146 | 35712 ft | 503 kts | 251° |
| 2026-04-15 15:04 | 68.31961 | -71.54060 | 35713 ft | 505 kts | 251° |
| 2026-04-15 15:05 | 68.29733 | -71.72141 | 35720 ft | 505 kts | 251° |
| 2026-04-15 15:05 | 68.27489 | -71.90171 | 35722 ft | 505 kts | 250° |
| 2026-04-15 15:06 | 68.24100 | -72.17015 | 35730 ft | 505 kts | 250° |
| 2026-04-15 15:06 | 68.21804 | -72.34960 | 35737 ft | 505 kts | 250° |
| 2026-04-15 15:07 | 68.19490 | -72.52858 | 35734 ft | 506 kts | 250° |
| 2026-04-15 15:07 | 68.17148 | -72.70782 | 35730 ft | 508 kts | 250° |
| 2026-04-15 15:08 | 68.14797 | -72.88605 | 35729 ft | 508 kts | 250° |
| 2026-04-15 15:08 | 68.12416 | -73.06476 | 35738 ft | 508 kts | 250° |
| 2026-04-15 15:09 | 68.10010 | -73.24343 | 35738 ft | 508 kts | 249° |
| 2026-04-15 15:09 | 68.07585 | -73.42170 | 35738 ft | 508 kts | 249° |
| 2026-04-15 15:10 | 68.05141 | -73.59964 | 35738 ft | 508 kts | 249° |
| 2026-04-15 15:10 | 68.02691 | -73.77613 | 35742 ft | 510 kts | 249° |
| 2026-04-15 15:11 | 68.00201 | -73.95391 | 35743 ft | 511 kts | 249° |
| 2026-04-15 15:11 | 67.97696 | -74.13094 | 35742 ft | 511 kts | 249° |
| 2026-04-15 15:12 | 67.95162 | -74.30823 | 35743 ft | 511 kts | 249° |
| 2026-04-15 15:12 | 67.92630 | -74.48376 | 35745 ft | 511 kts | 248° |
| 2026-04-15 15:13 | 67.90055 | -74.66050 | 35745 ft | 511 kts | 248° |
| 2026-04-15 15:13 | 67.87468 | -74.83643 | 35735 ft | 511 kts | 248° |
| 2026-04-15 15:14 | 67.84863 | -75.01186 | 35743 ft | 511 kts | 248° |
| 2026-04-15 15:14 | 67.82255 | -75.18595 | 35750 ft | 510 kts | 248° |
| 2026-04-15 15:15 | 67.79611 | -75.36076 | 35752 ft | 510 kts | 248° |
| 2026-04-15 15:15 | 67.76951 | -75.53501 | 35753 ft | 510 kts | 248° |
| 2026-04-15 15:16 | 67.74270 | -75.70903 | 35757 ft | 510 kts | 247° |
| 2026-04-15 15:16 | 67.71569 | -75.88266 | 35735 ft | 510 kts | 247° |
| 2026-04-15 15:17 | 67.68860 | -76.05504 | 35752 ft | 509 kts | 247° |
| 2026-04-15 15:17 | 67.66154 | -76.22610 | 35755 ft | 509 kts | 247° |
| 2026-04-15 15:18 | 67.63408 | -76.39808 | 35756 ft | 509 kts | 247° |
| 2026-04-15 15:18 | 67.60648 | -76.56928 | 35763 ft | 508 kts | 247° |
| 2026-04-15 15:19 | 67.57892 | -76.73880 | 35759 ft | 507 kts | 247° |
| 2026-04-15 15:19 | 67.55100 | -76.90900 | 35759 ft | 507 kts | 246° |
| 2026-04-15 15:20 | 67.52289 | -77.07865 | 35754 ft | 507 kts | 247° |
| 2026-04-15 15:20 | 67.49465 | -77.24792 | 35760 ft | 507 kts | 246° |
| 2026-04-15 15:21 | 67.46627 | -77.41657 | 35763 ft | 507 kts | 246° |
| 2026-04-15 15:21 | 67.43787 | -77.58389 | 35767 ft | 507 kts | 246° |
| 2026-04-15 15:22 | 67.40906 | -77.75209 | 35764 ft | 507 kts | 246° |
| 2026-04-15 15:22 | 67.38011 | -77.91971 | 35766 ft | 507 kts | 246° |
| 2026-04-15 15:23 | 67.35106 | -78.08640 | 35753 ft | 506 kts | 246° |
| 2026-04-15 15:23 | 67.32204 | -78.25169 | 35763 ft | 506 kts | 246° |
| 2026-04-15 15:24 | 67.29270 | -78.41745 | 35769 ft | 505 kts | 246° |
| 2026-04-15 15:24 | 67.26315 | -78.58297 | 35769 ft | 505 kts | 245° |
| 2026-04-15 15:25 | 67.23359 | -78.74719 | 35769 ft | 506 kts | 245° |
| 2026-04-15 15:25 | 67.20373 | -78.91171 | 35769 ft | 506 kts | 245° |
| 2026-04-15 15:26 | 67.17373 | -79.07561 | 35756 ft | 505 kts | 245° |
| 2026-04-15 15:26 | 67.14355 | -79.23905 | 35782 ft | 504 kts | 245° |
| 2026-04-15 15:27 | 67.11329 | -79.40202 | 35786 ft | 504 kts | 245° |
| 2026-04-15 15:27 | 67.08284 | -79.56452 | 35771 ft | 504 kts | 245° |
| 2026-04-15 15:28 | 67.05243 | -79.72553 | 35777 ft | 504 kts | 245° |
| 2026-04-15 15:28 | 67.02165 | -79.88708 | 35792 ft | 504 kts | 245° |
| 2026-04-15 15:29 | 66.99068 | -80.04796 | 35787 ft | 504 kts | 244° |
| 2026-04-15 15:29 | 66.95906 | -80.20804 | 35788 ft | 504 kts | 244° |
| 2026-04-15 15:30 | 66.92732 | -80.36703 | 35798 ft | 504 kts | 244° |
| 2026-04-15 15:30 | 66.89533 | -80.52612 | 35794 ft | 504 kts | 244° |
| 2026-04-15 15:31 | 66.86324 | -80.68473 | 35793 ft | 503 kts | 244° |
| 2026-04-15 15:31 | 66.83097 | -80.84310 | 35792 ft | 503 kts | 244° |
| 2026-04-15 15:32 | 66.79860 | -81.00072 | 35796 ft | 503 kts | 243° |
| 2026-04-15 15:32 | 66.76621 | -81.15713 | 35796 ft | 503 kts | 244° |
| 2026-04-15 15:33 | 66.73348 | -81.31419 | 35797 ft | 503 kts | 243° |
| 2026-04-15 15:33 | 66.70064 | -81.47064 | 35802 ft | 503 kts | 243° |
| 2026-04-15 15:34 | 66.66763 | -81.62671 | 35812 ft | 503 kts | 243° |
| 2026-04-15 15:34 | 66.63447 | -81.78224 | 35806 ft | 502 kts | 243° |
| 2026-04-15 15:35 | 66.60119 | -81.93732 | 35810 ft | 502 kts | 243° |
| 2026-04-15 15:35 | 66.56804 | -82.09071 | 35791 ft | 502 kts | 243° |
| 2026-04-15 15:36 | 66.53448 | -82.24486 | 35811 ft | 502 kts | 242° |
| 2026-04-15 15:36 | 66.50070 | -82.39880 | 35813 ft | 503 kts | 242° |
| 2026-04-15 15:37 | 66.46681 | -82.55215 | 35817 ft | 503 kts | 242° |
| 2026-04-15 15:37 | 66.43276 | -82.70512 | 35824 ft | 503 kts | 242° |
| 2026-04-15 15:38 | 66.39853 | -82.85782 | 35835 ft | 502 kts | 242° |
| 2026-04-15 15:38 | 66.36430 | -83.00938 | 35809 ft | 501 kts | 242° |
| 2026-04-15 15:39 | 66.33016 | -83.15971 | 35832 ft | 499 kts | 242° |
| 2026-04-15 15:39 | 66.29579 | -83.30989 | 35836 ft | 498 kts | 242° |
| 2026-04-15 15:40 | 66.26710 | -83.43445 | 35844 ft | 498 kts | 242° |
| 2026-04-15 15:40 | 66.23251 | -83.58370 | 35848 ft | 498 kts | 242° |
| 2026-04-15 15:41 | 66.19773 | -83.73270 | 35845 ft | 498 kts | 241° |
| 2026-04-15 15:41 | 66.16279 | -83.88139 | 35858 ft | 498 kts | 241° |
| 2026-04-15 15:42 | 66.12798 | -84.02834 | 35851 ft | 497 kts | 242° |
| 2026-04-15 15:42 | 66.09290 | -84.17564 | 35863 ft | 496 kts | 241° |
| 2026-04-15 15:43 | 66.05771 | -84.32246 | 35863 ft | 496 kts | 241° |
| 2026-04-15 15:43 | 66.02261 | -84.46790 | 35867 ft | 496 kts | 241° |
| 2026-04-15 15:44 | 65.98709 | -84.61406 | 35875 ft | 496 kts | 241° |
| 2026-04-15 15:44 | 65.95151 | -84.75949 | 35875 ft | 496 kts | 241° |
| 2026-04-15 15:45 | 65.91598 | -84.90367 | 35860 ft | 496 kts | 241° |
| 2026-04-15 15:45 | 65.88027 | -85.04769 | 35878 ft | 494 kts | 241° |
| 2026-04-15 15:46 | 65.84435 | -85.19163 | 35883 ft | 494 kts | 241° |
| 2026-04-15 15:46 | 65.80858 | -85.33409 | 35888 ft | 494 kts | 240° |
| 2026-04-15 15:47 | 65.77243 | -85.47711 | 35889 ft | 494 kts | 240° |
| 2026-04-15 15:47 | 65.73619 | -85.61953 | 35897 ft | 494 kts | 240° |
| 2026-04-15 15:48 | 65.70001 | -85.76080 | 35897 ft | 494 kts | 240° |
| 2026-04-15 15:48 | 65.66356 | -85.90222 | 35891 ft | 493 kts | 240° |
| 2026-04-15 15:49 | 65.62702 | -86.04309 | 35906 ft | 493 kts | 240° |
| 2026-04-15 15:49 | 65.59028 | -86.18382 | 35908 ft | 493 kts | 240° |
| 2026-04-15 15:50 | 65.55345 | -86.32398 | 35915 ft | 493 kts | 240° |
| 2026-04-15 15:50 | 65.51658 | -86.46344 | 35916 ft | 492 kts | 239° |
| 2026-04-15 15:51 | 65.47981 | -86.60167 | 35913 ft | 492 kts | 239° |
| 2026-04-15 15:51 | 65.44269 | -86.74035 | 35916 ft | 489 kts | 239° |
| 2026-04-15 15:52 | 65.40577 | -86.87737 | 35923 ft | 487 kts | 239° |
| 2026-04-15 15:52 | 65.36881 | -87.01370 | 35935 ft | 487 kts | 239° |
| 2026-04-15 15:53 | 65.33189 | -87.14910 | 35928 ft | 487 kts | 239° |
| 2026-04-15 15:53 | 65.29460 | -87.28501 | 35934 ft | 487 kts | 239° |
| 2026-04-15 15:54 | 65.25717 | -87.42050 | 35945 ft | 487 kts | 239° |
| 2026-04-15 15:54 | 65.21964 | -87.55556 | 35924 ft | 486 kts | 239° |
| 2026-04-15 15:55 | 65.18239 | -87.68892 | 35948 ft | 486 kts | 239° |
| 2026-04-15 15:55 | 65.14476 | -87.82293 | 35956 ft | 486 kts | 239° |
| 2026-04-15 15:56 | 65.10698 | -87.95654 | 35961 ft | 486 kts | 239° |
| 2026-04-15 15:56 | 65.06930 | -88.08897 | 35969 ft | 486 kts | 239° |
| 2026-04-15 15:57 | 65.03130 | -88.22185 | 35966 ft | 486 kts | 238° |
| 2026-04-15 15:57 | 64.99310 | -88.35452 | 35974 ft | 486 kts | 238° |
| 2026-04-15 15:58 | 64.95501 | -88.48614 | 35966 ft | 482 kts | 238° |
| 2026-04-15 15:58 | 64.91727 | -88.61559 | 35975 ft | 481 kts | 238° |
| 2026-04-15 15:59 | 64.87918 | -88.74561 | 35989 ft | 481 kts | 238° |
| 2026-04-15 15:59 | 64.84110 | -88.87483 | 35988 ft | 481 kts | 238° |
| 2026-04-15 16:00 | 64.80287 | -89.00380 | 35990 ft | 481 kts | 238° |
| 2026-04-15 16:00 | 64.76448 | -89.13258 | 35999 ft | 481 kts | 238° |
| 2026-04-15 16:01 | 64.72624 | -89.26015 | 36001 ft | 481 kts | 237° |
| 2026-04-15 16:01 | 64.68765 | -89.38810 | 36007 ft | 481 kts | 237° |
| 2026-04-15 16:02 | 64.64891 | -89.51584 | 36007 ft | 481 kts | 237° |
| 2026-04-15 16:02 | 64.61005 | -89.64325 | 36006 ft | 481 kts | 237° |
| 2026-04-15 16:03 | 64.57112 | -89.77014 | 36007 ft | 481 kts | 237° |
| 2026-04-15 16:03 | 64.53206 | -89.89667 | 36006 ft | 481 kts | 237° |
| 2026-04-15 16:04 | 64.49225 | -90.02175 | 35992 ft | 482 kts | 233° |
| 2026-04-15 16:04 | 64.44974 | -90.14076 | 36016 ft | 482 kts | 233° |
| 2026-04-15 16:05 | 64.40693 | -90.26048 | 36015 ft | 482 kts | 233° |
| 2026-04-15 16:05 | 64.36401 | -90.37980 | 36017 ft | 482 kts | 233° |
| 2026-04-15 16:06 | 64.32104 | -90.49845 | 36013 ft | 481 kts | 233° |
| 2026-04-15 16:06 | 64.27799 | -90.61673 | 36017 ft | 481 kts | 233° |
| 2026-04-15 16:07 | 64.23484 | -90.73464 | 36023 ft | 481 kts | 232° |
| 2026-04-15 16:08 | 64.17043 | -90.90950 | 36016 ft | 478 kts | 232° |
| 2026-04-15 16:08 | 64.12727 | -91.02586 | 36036 ft | 478 kts | 232° |
| 2026-04-15 16:09 | 64.08401 | -91.14187 | 36037 ft | 478 kts | 232° |
| 2026-04-15 16:09 | 64.04067 | -91.25751 | 36015 ft | 478 kts | 232° |
| 2026-04-15 16:10 | 63.99771 | -91.37145 | 36042 ft | 476 kts | 232° |
| 2026-04-15 16:10 | 63.95445 | -91.48572 | 36044 ft | 476 kts | 232° |
| 2026-04-15 16:11 | 63.91112 | -91.59961 | 36045 ft | 475 kts | 232° |
| 2026-04-15 16:11 | 63.86772 | -91.71305 | 36055 ft | 475 kts | 232° |
| 2026-04-15 16:12 | 63.82429 | -91.82597 | 36052 ft | 475 kts | 232° |
| 2026-04-15 16:12 | 63.78072 | -91.93868 | 36066 ft | 475 kts | 231° |
| 2026-04-15 16:13 | 63.73711 | -92.05093 | 36067 ft | 475 kts | 231° |
| 2026-04-15 16:13 | 63.69366 | -92.16213 | 36063 ft | 474 kts | 231° |
| 2026-04-15 16:14 | 63.64987 | -92.27372 | 36074 ft | 474 kts | 231° |
| 2026-04-15 16:14 | 63.60633 | -92.38417 | 36065 ft | 473 kts | 231° |
| 2026-04-15 16:15 | 63.56254 | -92.49463 | 36088 ft | 473 kts | 231° |
| 2026-04-15 16:15 | 63.51861 | -92.60485 | 36084 ft | 473 kts | 231° |
| 2026-04-15 16:16 | 63.47489 | -92.71404 | 36088 ft | 473 kts | 231° |
| 2026-04-15 16:16 | 63.43055 | -92.82421 | 36104 ft | 473 kts | 231° |
| 2026-04-15 16:17 | 63.38672 | -92.93253 | 36090 ft | 472 kts | 231° |
| 2026-04-15 16:17 | 63.34263 | -93.04100 | 36101 ft | 471 kts | 231° |
| 2026-04-15 16:18 | 63.29849 | -93.14912 | 36104 ft | 470 kts | 231° |
| 2026-04-15 16:18 | 63.25459 | -93.25608 | 36107 ft | 470 kts | 231° |
| 2026-04-15 16:19 | 63.21036 | -93.36333 | 36111 ft | 470 kts | 230° |
| 2026-04-15 16:19 | 63.16605 | -93.47024 | 36110 ft | 470 kts | 230° |
| 2026-04-15 16:20 | 63.12199 | -93.57603 | 36113 ft | 470 kts | 230° |
| 2026-04-15 16:20 | 63.07751 | -93.68232 | 36100 ft | 470 kts | 230° |
| 2026-04-15 16:21 | 63.03304 | -93.78802 | 36100 ft | 468 kts | 230° |
| 2026-04-15 16:21 | 62.98877 | -93.89282 | 36114 ft | 468 kts | 230° |
| 2026-04-15 16:22 | 62.94427 | -93.99764 | 36119 ft | 468 kts | 230° |
| 2026-04-15 16:22 | 62.89981 | -94.10186 | 36122 ft | 468 kts | 230° |
| 2026-04-15 16:23 | 62.85514 | -94.20605 | 36128 ft | 468 kts | 230° |
| 2026-04-15 16:23 | 62.81070 | -94.30924 | 36128 ft | 468 kts | 230° |
| 2026-04-15 16:24 | 62.76583 | -94.41294 | 36131 ft | 468 kts | 230° |
| 2026-04-15 16:24 | 62.72104 | -94.51591 | 36133 ft | 466 kts | 230° |
| 2026-04-15 16:25 | 62.67635 | -94.61822 | 36143 ft | 465 kts | 230° |
| 2026-04-15 16:25 | 62.63160 | -94.72019 | 36145 ft | 465 kts | 229° |
| 2026-04-15 16:26 | 62.58698 | -94.82140 | 36154 ft | 465 kts | 229° |
| 2026-04-15 16:26 | 62.54202 | -94.92289 | 36154 ft | 466 kts | 229° |
| 2026-04-15 16:27 | 62.49700 | -95.02404 | 36165 ft | 466 kts | 229° |
| 2026-04-15 16:27 | 62.45224 | -95.12416 | 36166 ft | 466 kts | 229° |
| 2026-04-15 16:28 | 62.40708 | -95.22468 | 36148 ft | 464 kts | 229° |
| 2026-04-15 16:28 | 62.36207 | -95.32440 | 36177 ft | 463 kts | 229° |
| 2026-04-15 16:29 | 62.32432 | -95.40771 | 36178 ft | 463 kts | 229° |
| 2026-04-15 16:29 | 62.27951 | -95.50620 | 36168 ft | 463 kts | 229° |
| 2026-04-15 16:30 | 62.23432 | -95.60505 | 36187 ft | 463 kts | 229° |
| 2026-04-15 16:30 | 62.18892 | -95.70392 | 36186 ft | 463 kts | 229° |
| 2026-04-15 16:31 | 62.14385 | -95.80163 | 36190 ft | 463 kts | 229° |
| 2026-04-15 16:31 | 62.09841 | -95.89971 | 36173 ft | 463 kts | 229° |
| 2026-04-15 16:32 | 62.05290 | -95.99741 | 36194 ft | 462 kts | 229° |
| 2026-04-15 16:32 | 62.00756 | -96.09439 | 36212 ft | 462 kts | 228° |
| 2026-04-15 16:33 | 61.96243 | -96.19049 | 36208 ft | 462 kts | 228° |
| 2026-04-15 16:33 | 61.91689 | -96.28702 | 36210 ft | 462 kts | 228° |
| 2026-04-15 16:34 | 61.87097 | -96.38393 | 36221 ft | 462 kts | 228° |
| 2026-04-15 16:34 | 61.82558 | -96.47927 | 36222 ft | 462 kts | 228° |
| 2026-04-15 16:35 | 61.77982 | -96.57498 | 36227 ft | 462 kts | 228° |
| 2026-04-15 16:35 | 61.73400 | -96.67041 | 36213 ft | 461 kts | 228° |
| 2026-04-15 16:36 | 61.68823 | -96.76528 | 36224 ft | 460 kts | 228° |
| 2026-04-15 16:36 | 61.64271 | -96.85924 | 36224 ft | 460 kts | 227° |
| 2026-04-15 16:37 | 61.59682 | -96.95355 | 36223 ft | 460 kts | 227° |
| 2026-04-15 16:37 | 61.55082 | -97.04766 | 36228 ft | 460 kts | 227° |
| 2026-04-15 16:38 | 61.50486 | -97.14130 | 36231 ft | 460 kts | 227° |
| 2026-04-15 16:38 | 61.45910 | -97.23412 | 36232 ft | 460 kts | 227° |
| 2026-04-15 16:39 | 61.41301 | -97.32719 | 36236 ft | 460 kts | 227° |
| 2026-04-15 16:39 | 61.36682 | -97.42009 | 36235 ft | 460 kts | 227° |
| 2026-04-15 16:40 | 61.32049 | -97.51283 | 36235 ft | 460 kts | 227° |
| 2026-04-15 16:40 | 61.27446 | -97.60460 | 36238 ft | 460 kts | 227° |
| 2026-04-15 16:41 | 61.22804 | -97.69675 | 36227 ft | 460 kts | 227° |
| 2026-04-15 16:41 | 61.18164 | -97.78848 | 36236 ft | 460 kts | 227° |
| 2026-04-15 16:42 | 61.13507 | -97.88012 | 36237 ft | 460 kts | 226° |
| 2026-04-15 16:42 | 61.08881 | -97.97077 | 36217 ft | 460 kts | 226° |
| 2026-04-15 16:43 | 61.04236 | -98.06138 | 36225 ft | 459 kts | 226° |
| 2026-04-15 16:43 | 60.99592 | -98.15166 | 36229 ft | 458 kts | 226° |
| 2026-04-15 16:44 | 60.94960 | -98.24128 | 36232 ft | 459 kts | 226° |
| 2026-04-15 16:44 | 60.90291 | -98.33129 | 36220 ft | 459 kts | 226° |
| 2026-04-15 16:45 | 60.85617 | -98.42096 | 36223 ft | 459 kts | 226° |
| 2026-04-15 16:45 | 60.80946 | -98.51020 | 36316 ft | 458 kts | 226° |
| 2026-04-15 16:45 | 60.78614 | -98.55461 | 36573 ft | 457 kts | 226° |
| 2026-04-15 16:46 | 60.76280 | -98.59897 | 36805 ft | 458 kts | 226° |
| 2026-04-15 16:46 | 60.73941 | -98.64333 | 37055 ft | 457 kts | 226° |
| 2026-04-15 16:46 | 60.71634 | -98.68700 | 37312 ft | 457 kts | 226° |
| 2026-04-15 16:46 | 60.69300 | -98.73109 | 37576 ft | 457 kts | 226° |
| 2026-04-15 16:47 | 60.66966 | -98.77509 | 37844 ft | 456 kts | 226° |
| 2026-04-15 16:47 | 60.64635 | -98.81895 | 38093 ft | 455 kts | 226° |
| 2026-04-15 16:47 | 60.62300 | -98.86280 | 38200 ft | 458 kts | 226° |
| 2026-04-15 16:48 | 60.57587 | -98.95104 | 38220 ft | 460 kts | 225° |
| 2026-04-15 16:48 | 60.52874 | -99.03887 | 38221 ft | 460 kts | 225° |
| 2026-04-15 16:49 | 60.48176 | -99.12605 | 38230 ft | 460 kts | 225° |
| 2026-04-15 16:49 | 60.43446 | -99.21348 | 38230 ft | 460 kts | 225° |
| 2026-04-15 16:50 | 60.38716 | -99.30053 | 38222 ft | 459 kts | 225° |
| 2026-04-15 16:50 | 60.33982 | -99.38734 | 38233 ft | 459 kts | 225° |
| 2026-04-15 16:51 | 60.29246 | -99.47384 | 38234 ft | 459 kts | 225° |
| 2026-04-15 16:51 | 60.24488 | -99.56036 | 38235 ft | 459 kts | 225° |
| 2026-04-15 16:52 | 60.19754 | -99.64607 | 38237 ft | 459 kts | 225° |
| 2026-04-15 16:52 | 60.14984 | -99.73210 | 38234 ft | 459 kts | 225° |
| 2026-04-15 16:53 | 60.10243 | -99.81725 | 38235 ft | 460 kts | 225° |
| 2026-04-15 16:53 | 60.05471 | -99.90257 | 38222 ft | 458 kts | 225° |
| 2026-04-15 16:54 | 60.00663 | -99.98673 | 38224 ft | 459 kts | 222° |
| 2026-04-15 16:54 | 59.95527 | -100.06285 | 38234 ft | 462 kts | 218° |
| 2026-04-15 16:55 | 59.90270 | -100.13680 | 38238 ft | 462 kts | 218° |
| 2026-04-15 16:55 | 59.85051 | -100.21025 | 38240 ft | 462 kts | 218° |
| 2026-04-15 16:56 | 59.79790 | -100.28387 | 38233 ft | 462 kts | 218° |
| 2026-04-15 16:56 | 59.74530 | -100.35709 | 38230 ft | 461 kts | 218° |
| 2026-04-15 16:57 | 59.69277 | -100.42991 | 38238 ft | 460 kts | 218° |
| 2026-04-15 16:57 | 59.64024 | -100.50247 | 38234 ft | 460 kts | 218° |
| 2026-04-15 16:58 | 59.58775 | -100.57468 | 38243 ft | 459 kts | 218° |
| 2026-04-15 16:58 | 59.53540 | -100.64640 | 38243 ft | 459 kts | 218° |
| 2026-04-15 16:59 | 59.48278 | -100.71821 | 38251 ft | 459 kts | 218° |
| 2026-04-15 16:59 | 59.43006 | -100.78988 | 38225 ft | 459 kts | 218° |
| 2026-04-15 17:00 | 59.37789 | -100.86052 | 38245 ft | 457 kts | 218° |
| 2026-04-15 17:00 | 59.32549 | -100.93123 | 38256 ft | 457 kts | 218° |
| 2026-04-15 17:01 | 59.27301 | -101.00176 | 38251 ft | 457 kts | 218° |
| 2026-04-15 17:01 | 59.22033 | -101.07234 | 38253 ft | 458 kts | 218° |
| 2026-04-15 17:02 | 59.16801 | -101.14211 | 38260 ft | 458 kts | 217° |
| 2026-04-15 17:02 | 59.11518 | -101.21229 | 38233 ft | 458 kts | 217° |
| 2026-04-15 17:03 | 59.06249 | -101.28204 | 38250 ft | 457 kts | 217° |
| 2026-04-15 17:03 | 59.00985 | -101.35146 | 38258 ft | 457 kts | 217° |
| 2026-04-15 17:04 | 58.95759 | -101.42012 | 38261 ft | 457 kts | 217° |
| 2026-04-15 17:04 | 58.90493 | -101.48906 | 38248 ft | 457 kts | 217° |
| 2026-04-15 17:05 | 58.85208 | -101.55800 | 38249 ft | 458 kts | 217° |
| 2026-04-15 17:05 | 58.79914 | -101.62676 | 38254 ft | 458 kts | 217° |
| 2026-04-15 17:06 | 58.74621 | -101.69525 | 38249 ft | 457 kts | 217° |
| 2026-04-15 17:06 | 58.69357 | -101.76313 | 38241 ft | 457 kts | 217° |
| 2026-04-15 17:07 | 58.64060 | -101.83119 | 38253 ft | 457 kts | 217° |
| 2026-04-15 17:07 | 58.58760 | -101.89903 | 38236 ft | 457 kts | 217° |
| 2026-04-15 17:08 | 58.53491 | -101.96622 | 38237 ft | 457 kts | 217° |
| 2026-04-15 17:08 | 58.48184 | -102.03365 | 38244 ft | 457 kts | 217° |
| 2026-04-15 17:09 | 58.42873 | -102.10088 | 38223 ft | 457 kts | 217° |
| 2026-04-15 17:09 | 58.37594 | -102.16747 | 38237 ft | 457 kts | 216° |
| 2026-04-15 17:10 | 58.32276 | -102.23429 | 38245 ft | 457 kts | 216° |
| 2026-04-15 17:10 | 58.26995 | -102.30041 | 38230 ft | 457 kts | 216° |
| 2026-04-15 17:11 | 58.21670 | -102.36685 | 38236 ft | 457 kts | 216° |
| 2026-04-15 17:11 | 58.16350 | -102.43299 | 38228 ft | 457 kts | 216° |
| 2026-04-15 17:12 | 58.08344 | -102.53206 | 38214 ft | 458 kts | 216° |
| 2026-04-15 17:12 | 58.03038 | -102.59740 | 38221 ft | 458 kts | 216° |
| 2026-04-15 17:13 | 57.97696 | -102.66297 | 38214 ft | 458 kts | 216° |
| 2026-04-15 17:13 | 57.92337 | -102.72850 | 38216 ft | 458 kts | 216° |
| 2026-04-15 17:14 | 57.86986 | -102.79369 | 38209 ft | 458 kts | 216° |
| 2026-04-15 17:14 | 57.81619 | -102.85886 | 38179 ft | 458 kts | 216° |
| 2026-04-15 17:15 | 57.76296 | -102.92328 | 38207 ft | 458 kts | 216° |
| 2026-04-15 17:15 | 57.70927 | -102.98799 | 38208 ft | 458 kts | 216° |
| 2026-04-15 17:16 | 57.66466 | -103.04158 | 38201 ft | 458 kts | 216° |
| 2026-04-15 17:16 | 57.60234 | -103.11620 | 38199 ft | 458 kts | 216° |
| 2026-04-15 17:17 | 57.55771 | -103.16944 | 38190 ft | 458 kts | 215° |
| 2026-04-15 17:17 | 57.50388 | -103.23345 | 38157 ft | 458 kts | 215° |
| 2026-04-15 17:18 | 57.45022 | -103.29704 | 38179 ft | 457 kts | 215° |
| 2026-04-15 17:18 | 57.39637 | -103.36065 | 38177 ft | 458 kts | 215° |
| 2026-04-15 17:19 | 57.34255 | -103.42396 | 38179 ft | 458 kts | 215° |
| 2026-04-15 17:19 | 57.28893 | -103.48682 | 38162 ft | 458 kts | 215° |
| 2026-04-15 17:20 | 57.23504 | -103.54978 | 38162 ft | 458 kts | 215° |
| 2026-04-15 17:20 | 57.18113 | -103.61255 | 38131 ft | 458 kts | 215° |
| 2026-04-15 17:21 | 57.12718 | -103.67513 | 38146 ft | 457 kts | 215° |
| 2026-04-15 17:21 | 57.07323 | -103.73753 | 38149 ft | 458 kts | 214° |
| 2026-04-15 17:22 | 57.01946 | -103.79948 | 38133 ft | 458 kts | 214° |
| 2026-04-15 17:22 | 56.96547 | -103.86146 | 38133 ft | 458 kts | 214° |
| 2026-04-15 17:23 | 56.91125 | -103.92349 | 38121 ft | 458 kts | 214° |
| 2026-04-15 17:23 | 56.85712 | -103.98520 | 38094 ft | 458 kts | 214° |
| 2026-04-15 17:24 | 56.80298 | -104.04672 | 38105 ft | 457 kts | 214° |
| 2026-04-15 17:24 | 56.74917 | -104.10766 | 38108 ft | 457 kts | 214° |
| 2026-04-15 17:25 | 56.69496 | -104.16885 | 38106 ft | 458 kts | 214° |
| 2026-04-15 17:25 | 56.64073 | -104.22984 | 38095 ft | 458 kts | 214° |
| 2026-04-15 17:26 | 56.58646 | -104.29066 | 38095 ft | 458 kts | 214° |
| 2026-04-15 17:26 | 56.53253 | -104.35089 | 38065 ft | 457 kts | 214° |
| 2026-04-15 17:27 | 56.47834 | -104.41121 | 38086 ft | 457 kts | 214° |
| 2026-04-15 17:27 | 56.42410 | -104.47140 | 38075 ft | 457 kts | 214° |
| 2026-04-15 17:28 | 56.36982 | -104.53142 | 38077 ft | 457 kts | 214° |
| 2026-04-15 17:28 | 56.31548 | -104.59131 | 38070 ft | 457 kts | 214° |
| 2026-04-15 17:29 | 56.26108 | -104.65105 | 38059 ft | 457 kts | 214° |
| 2026-04-15 17:29 | 56.20704 | -104.71016 | 38048 ft | 456 kts | 214° |
| 2026-04-15 17:30 | 56.15277 | -104.76938 | 38052 ft | 455 kts | 214° |
| 2026-04-15 17:30 | 56.09849 | -104.82840 | 38052 ft | 455 kts | 214° |
| 2026-04-15 17:31 | 56.04425 | -104.88720 | 38036 ft | 456 kts | 214° |
| 2026-04-15 17:31 | 55.98997 | -104.94583 | 38040 ft | 456 kts | 214° |
| 2026-04-15 17:32 | 55.93567 | -105.00428 | 38038 ft | 456 kts | 214° |
| 2026-04-15 17:32 | 55.88130 | -105.06257 | 38016 ft | 454 kts | 214° |
| 2026-04-15 17:33 | 55.82749 | -105.12012 | 38029 ft | 454 kts | 214° |
| 2026-04-15 17:33 | 55.77320 | -105.17800 | 38021 ft | 454 kts | 214° |
| 2026-04-15 17:34 | 55.71894 | -105.23566 | 38006 ft | 454 kts | 214° |
| 2026-04-15 17:34 | 55.66513 | -105.29264 | 38005 ft | 454 kts | 214° |
| 2026-04-15 17:35 | 55.61075 | -105.35005 | 37994 ft | 455 kts | 213° |
| 2026-04-15 17:35 | 55.55645 | -105.40715 | 37994 ft | 452 kts | 213° |
| 2026-04-15 17:36 | 55.50225 | -105.46398 | 37992 ft | 452 kts | 213° |
| 2026-04-15 17:36 | 55.44804 | -105.52066 | 37983 ft | 452 kts | 213° |
| 2026-04-15 17:37 | 55.39385 | -105.57712 | 37964 ft | 452 kts | 213° |
| 2026-04-15 17:37 | 55.33996 | -105.63309 | 37962 ft | 452 kts | 213° |
| 2026-04-15 17:38 | 55.28558 | -105.68939 | 37926 ft | 453 kts | 213° |
| 2026-04-15 17:38 | 55.23142 | -105.74526 | 37954 ft | 451 kts | 213° |
| 2026-04-15 17:39 | 55.17727 | -105.80097 | 37962 ft | 451 kts | 213° |
| 2026-04-15 17:39 | 55.12339 | -105.85622 | 37968 ft | 451 kts | 213° |
| 2026-04-15 17:40 | 55.06912 | -105.91169 | 37979 ft | 451 kts | 213° |
| 2026-04-15 17:40 | 55.01484 | -105.96699 | 37967 ft | 451 kts | 213° |
| 2026-04-15 17:41 | 54.96117 | -106.02150 | 37968 ft | 451 kts | 213° |
| 2026-04-15 17:41 | 54.90689 | -106.07646 | 37962 ft | 451 kts | 213° |
| 2026-04-15 17:42 | 54.85258 | -106.13127 | 37955 ft | 451 kts | 213° |
| 2026-04-15 17:42 | 54.79853 | -106.18565 | 37947 ft | 451 kts | 213° |
| 2026-04-15 17:43 | 54.74422 | -106.24012 | 37949 ft | 451 kts | 213° |
| 2026-04-15 17:43 | 54.68983 | -106.29450 | 37948 ft | 451 kts | 213° |
| 2026-04-15 17:44 | 54.63556 | -106.34859 | 37925 ft | 450 kts | 213° |
| 2026-04-15 17:44 | 54.58125 | -106.40255 | 37931 ft | 450 kts | 213° |
| 2026-04-15 17:45 | 54.52721 | -106.45609 | 37921 ft | 450 kts | 213° |
| 2026-04-15 17:45 | 54.47290 | -106.50972 | 37922 ft | 450 kts | 213° |
| 2026-04-15 17:46 | 54.41850 | -106.56326 | 37913 ft | 450 kts | 213° |
| 2026-04-15 17:46 | 54.36402 | -106.61673 | 37903 ft | 450 kts | 213° |
| 2026-04-15 17:47 | 54.30967 | -106.66990 | 37902 ft | 449 kts | 213° |
| 2026-04-15 17:47 | 54.25560 | -106.72265 | 37901 ft | 450 kts | 213° |
| 2026-04-15 17:48 | 54.20095 | -106.77580 | 37903 ft | 451 kts | 213° |
| 2026-04-15 17:48 | 54.14636 | -106.82872 | 37893 ft | 451 kts | 212° |
| 2026-04-15 17:49 | 54.09168 | -106.88156 | 37892 ft | 451 kts | 212° |
| 2026-04-15 17:49 | 54.03736 | -106.93387 | 37863 ft | 451 kts | 213° |
| 2026-04-15 17:50 | 53.98278 | -106.98631 | 37880 ft | 450 kts | 212° |
| 2026-04-15 17:50 | 53.92818 | -107.03861 | 37874 ft | 450 kts | 212° |
| 2026-04-15 17:51 | 53.87342 | -107.09090 | 37877 ft | 452 kts | 212° |
| 2026-04-15 17:51 | 53.81894 | -107.14276 | 37862 ft | 452 kts | 212° |
| 2026-04-15 17:52 | 53.76399 | -107.19489 | 37825 ft | 452 kts | 212° |
| 2026-04-15 17:52 | 53.70905 | -107.24684 | 37860 ft | 452 kts | 212° |
| 2026-04-15 17:53 | 53.65413 | -107.29907 | 37852 ft | 452 kts | 214° |
| 2026-04-15 17:53 | 53.60177 | -107.35720 | 37853 ft | 449 kts | 219° |
| 2026-04-15 17:54 | 53.55302 | -107.42329 | 37844 ft | 448 kts | 224° |
| 2026-04-15 17:54 | 53.50828 | -107.49522 | 37845 ft | 448 kts | 226° |
| 2026-04-15 17:55 | 53.46355 | -107.56817 | 37843 ft | 448 kts | 226° |
| 2026-04-15 17:55 | 53.41872 | -107.64100 | 37812 ft | 447 kts | 226° |
| 2026-04-15 17:56 | 53.37387 | -107.71379 | 37824 ft | 447 kts | 226° |
| 2026-04-15 17:56 | 53.32910 | -107.78625 | 37827 ft | 447 kts | 226° |
| 2026-04-15 17:57 | 53.28458 | -107.85813 | 37815 ft | 447 kts | 226° |
| 2026-04-15 17:57 | 53.23967 | -107.93039 | 37817 ft | 447 kts | 226° |
| 2026-04-15 17:58 | 53.19483 | -108.00234 | 37823 ft | 447 kts | 226° |
| 2026-04-15 17:58 | 53.14984 | -108.07429 | 37810 ft | 447 kts | 226° |
| 2026-04-15 17:59 | 53.10517 | -108.14552 | 37784 ft | 446 kts | 226° |
| 2026-04-15 17:59 | 53.06067 | -108.21622 | 37796 ft | 440 kts | 226° |
| 2026-04-15 18:00 | 53.01634 | -108.28650 | 37785 ft | 439 kts | 226° |
| 2026-04-15 18:00 | 52.97205 | -108.35651 | 37780 ft | 439 kts | 226° |
| 2026-04-15 18:01 | 52.92785 | -108.42615 | 37774 ft | 439 kts | 226° |
| 2026-04-15 18:01 | 52.88350 | -108.49584 | 37776 ft | 439 kts | 226° |
| 2026-04-15 18:02 | 52.83904 | -108.56547 | 37775 ft | 439 kts | 226° |
| 2026-04-15 18:02 | 52.79456 | -108.63494 | 37781 ft | 439 kts | 226° |
| 2026-04-15 18:03 | 52.75759 | -108.69250 | 37755 ft | 439 kts | 226° |
| 2026-04-15 18:03 | 52.70579 | -108.77292 | 37802 ft | 438 kts | 226° |
| 2026-04-15 18:04 | 52.66882 | -108.83017 | 37805 ft | 438 kts | 226° |
| 2026-04-15 18:04 | 52.62427 | -108.89898 | 37798 ft | 438 kts | 226° |
| 2026-04-15 18:05 | 52.57965 | -108.96768 | 37791 ft | 439 kts | 226° |
| 2026-04-15 18:05 | 52.53502 | -109.03618 | 37791 ft | 439 kts | 226° |
| 2026-04-15 18:06 | 52.49030 | -109.10463 | 37792 ft | 439 kts | 226° |
| 2026-04-15 18:06 | 52.44579 | -109.17257 | 37780 ft | 439 kts | 226° |
| 2026-04-15 18:07 | 52.40100 | -109.24073 | 37764 ft | 438 kts | 225° |
| 2026-04-15 18:07 | 52.35634 | -109.30850 | 37767 ft | 437 kts | 225° |
| 2026-04-15 18:08 | 52.31186 | -109.37579 | 37752 ft | 437 kts | 225° |
| 2026-04-15 18:08 | 52.26704 | -109.44341 | 37762 ft | 437 kts | 225° |
| 2026-04-15 18:09 | 52.22217 | -109.51090 | 37756 ft | 437 kts | 225° |
| 2026-04-15 18:09 | 52.17760 | -109.57775 | 37751 ft | 437 kts | 225° |
| 2026-04-15 18:10 | 52.13269 | -109.64492 | 37731 ft | 437 kts | 225° |
| 2026-04-15 18:10 | 52.08774 | -109.71195 | 37731 ft | 437 kts | 225° |
| 2026-04-15 18:11 | 52.04286 | -109.77869 | 37715 ft | 436 kts | 225° |
| 2026-04-15 18:11 | 51.99833 | -109.84472 | 37729 ft | 435 kts | 225° |
| 2026-04-15 18:12 | 51.95348 | -109.91102 | 37732 ft | 435 kts | 225° |
| 2026-04-15 18:12 | 51.90864 | -109.97710 | 37730 ft | 435 kts | 224° |
| 2026-04-15 18:13 | 51.86154 | -110.03931 | 37724 ft | 437 kts | 220° |
| 2026-04-15 18:14 | 51.78972 | -110.12940 | 37725 ft | 437 kts | 221° |
| 2026-04-15 18:14 | 51.74157 | -110.18961 | 37710 ft | 437 kts | 221° |
| 2026-04-15 18:15 | 51.69336 | -110.24966 | 37721 ft | 437 kts | 221° |
| 2026-04-15 18:15 | 51.64505 | -110.30963 | 37715 ft | 436 kts | 221° |
| 2026-04-15 18:16 | 51.59709 | -110.36900 | 37697 ft | 436 kts | 221° |
| 2026-04-15 18:16 | 51.54877 | -110.42864 | 37706 ft | 437 kts | 221° |
| 2026-04-15 18:17 | 51.50078 | -110.48771 | 37699 ft | 437 kts | 220° |
| 2026-04-15 18:17 | 51.45238 | -110.54711 | 37698 ft | 437 kts | 220° |
| 2026-04-15 18:18 | 51.40403 | -110.60632 | 37661 ft | 435 kts | 220° |
| 2026-04-15 18:18 | 51.35629 | -110.66460 | 37682 ft | 434 kts | 220° |
| 2026-04-15 18:19 | 51.30816 | -110.72318 | 37686 ft | 434 kts | 220° |
| 2026-04-15 18:19 | 51.26006 | -110.78158 | 37679 ft | 434 kts | 220° |
| 2026-04-15 18:20 | 51.21188 | -110.83993 | 37675 ft | 434 kts | 220° |
| 2026-04-15 18:20 | 51.16360 | -110.89821 | 37676 ft | 434 kts | 220° |
| 2026-04-15 18:21 | 51.11577 | -110.95582 | 37667 ft | 433 kts | 220° |
| 2026-04-15 18:21 | 51.06777 | -111.01353 | 37652 ft | 433 kts | 220° |
| 2026-04-15 18:22 | 51.01946 | -111.07140 | 37652 ft | 433 kts | 220° |
| 2026-04-15 18:22 | 50.97127 | -111.12896 | 37657 ft | 433 kts | 220° |
| 2026-04-15 18:23 | 50.92326 | -111.18616 | 37660 ft | 433 kts | 220° |
| 2026-04-15 18:23 | 50.87496 | -111.24353 | 37645 ft | 432 kts | 220° |
| 2026-04-15 18:24 | 50.82678 | -111.30066 | 37643 ft | 432 kts | 220° |
| 2026-04-15 18:24 | 50.77887 | -111.35732 | 37594 ft | 432 kts | 220° |
| 2026-04-15 18:25 | 50.73062 | -111.41425 | 37635 ft | 433 kts | 220° |
| 2026-04-15 18:25 | 50.68220 | -111.47118 | 37629 ft | 433 kts | 220° |
| 2026-04-15 18:26 | 50.63385 | -111.52782 | 37625 ft | 432 kts | 220° |
| 2026-04-15 18:26 | 50.58577 | -111.58409 | 37623 ft | 432 kts | 220° |
| 2026-04-15 18:27 | 50.53739 | -111.64056 | 37628 ft | 432 kts | 220° |
| 2026-04-15 18:27 | 50.48904 | -111.69684 | 37617 ft | 432 kts | 220° |
| 2026-04-15 18:28 | 50.44057 | -111.75310 | 37604 ft | 434 kts | 220° |
| 2026-04-15 18:28 | 50.39233 | -111.80888 | 37627 ft | 432 kts | 220° |
| 2026-04-15 18:29 | 50.34394 | -111.86476 | 37619 ft | 430 kts | 220° |
| 2026-04-15 18:29 | 50.29565 | -111.92041 | 37610 ft | 430 kts | 220° |
| 2026-04-15 18:30 | 50.24732 | -111.97594 | 37612 ft | 430 kts | 220° |
| 2026-04-15 18:30 | 50.19904 | -112.03127 | 37613 ft | 430 kts | 220° |
| 2026-04-15 18:31 | 50.15109 | -112.08610 | 37607 ft | 428 kts | 220° |
| 2026-04-15 18:31 | 50.10350 | -112.14026 | 37624 ft | 421 kts | 220° |
| 2026-04-15 18:32 | 50.05618 | -112.19410 | 37613 ft | 420 kts | 220° |
| 2026-04-15 18:32 | 50.00917 | -112.24745 | 37613 ft | 420 kts | 220° |
| 2026-04-15 18:33 | 49.96192 | -112.30092 | 37633 ft | 420 kts | 220° |
| 2026-04-15 18:33 | 49.91459 | -112.35435 | 37629 ft | 420 kts | 219° |
| 2026-04-15 18:34 | 49.86739 | -112.40755 | 37630 ft | 418 kts | 219° |
| 2026-04-15 18:34 | 49.82052 | -112.46006 | 37628 ft | 417 kts | 219° |
| 2026-04-15 18:35 | 49.77358 | -112.51261 | 37603 ft | 416 kts | 219° |
| 2026-04-15 18:35 | 49.72661 | -112.56511 | 37610 ft | 416 kts | 219° |
| 2026-04-15 18:36 | 49.67956 | -112.61755 | 37606 ft | 416 kts | 219° |
| 2026-04-15 18:36 | 49.63206 | -112.66789 | 37602 ft | 418 kts | 216° |
| 2026-04-15 18:37 | 49.58128 | -112.71268 | 37604 ft | 419 kts | 213° |
| 2026-04-15 18:37 | 49.53021 | -112.75641 | 37568 ft | 419 kts | 213° |
| 2026-04-15 18:38 | 49.47940 | -112.79979 | 37594 ft | 419 kts | 213° |
| 2026-04-15 18:38 | 49.42833 | -112.84326 | 37604 ft | 419 kts | 213° |
| 2026-04-15 18:39 | 49.37711 | -112.88674 | 37576 ft | 422 kts | 213° |
| 2026-04-15 18:39 | 49.32525 | -112.93061 | 37607 ft | 426 kts | 213° |
| 2026-04-15 18:40 | 49.27318 | -112.97447 | 37605 ft | 426 kts | 213° |
| 2026-04-15 18:40 | 49.22147 | -113.01790 | 37588 ft | 427 kts | 213° |
| 2026-04-15 18:41 | 49.16935 | -113.06161 | 37609 ft | 427 kts | 213° |
| 2026-04-15 18:41 | 49.11720 | -113.10528 | 37612 ft | 427 kts | 213° |
| 2026-04-15 18:42 | 49.06514 | -113.14873 | 37616 ft | 423 kts | 213° |
| 2026-04-15 18:42 | 49.01352 | -113.19171 | 37618 ft | 422 kts | 213° |
| 2026-04-15 18:43 | 48.96235 | -113.23424 | 37615 ft | 422 kts | 213° |
| 2026-04-15 18:43 | 48.91081 | -113.27690 | 37627 ft | 419 kts | 213° |
| 2026-04-15 18:44 | 48.85954 | -113.31932 | 37630 ft | 419 kts | 213° |
| 2026-04-15 18:44 | 48.80828 | -113.36170 | 37602 ft | 421 kts | 212° |
| 2026-04-15 18:45 | 48.75619 | -113.40471 | 37656 ft | 430 kts | 212° |
| 2026-04-15 18:45 | 48.70331 | -113.44806 | 37697 ft | 432 kts | 212° |
| 2026-04-15 18:46 | 48.65055 | -113.49120 | 37696 ft | 433 kts | 212° |
| 2026-04-15 18:46 | 48.59754 | -113.53450 | 37736 ft | 433 kts | 212° |
| 2026-04-15 18:47 | 48.54448 | -113.57773 | 37740 ft | 433 kts | 212° |
| 2026-04-15 18:47 | 48.49127 | -113.62103 | 37719 ft | 439 kts | 211° |
| 2026-04-15 18:48 | 48.43738 | -113.66474 | 37748 ft | 439 kts | 211° |
| 2026-04-15 18:48 | 48.38354 | -113.70830 | 37702 ft | 439 kts | 211° |
| 2026-04-15 18:49 | 48.32981 | -113.75165 | 37741 ft | 437 kts | 211° |
| 2026-04-15 18:49 | 48.27644 | -113.79464 | 37742 ft | 438 kts | 211° |
| 2026-04-15 18:50 | 48.22276 | -113.83768 | 37750 ft | 434 kts | 212° |
| 2026-04-15 18:50 | 48.16952 | -113.88038 | 37732 ft | 433 kts | 212° |
| 2026-04-15 18:51 | 48.11630 | -113.92298 | 37730 ft | 434 kts | 212° |
| 2026-04-15 18:51 | 48.06329 | -113.96525 | 37720 ft | 433 kts | 212° |
| 2026-04-15 18:52 | 48.01016 | -114.00755 | 37725 ft | 433 kts | 212° |
| 2026-04-15 18:52 | 47.95703 | -114.04974 | 37726 ft | 432 kts | 212° |
| 2026-04-15 18:53 | 47.90380 | -114.09191 | 37716 ft | 432 kts | 212° |
| 2026-04-15 18:53 | 47.85964 | -114.12682 | 37717 ft | 432 kts | 212° |
| 2026-04-15 18:54 | 47.80650 | -114.16870 | 37684 ft | 432 kts | 212° |
| 2026-04-15 18:54 | 47.75340 | -114.21047 | 37691 ft | 431 kts | 212° |
| 2026-04-15 18:55 | 47.70061 | -114.25196 | 37704 ft | 431 kts | 212° |
| 2026-04-15 18:55 | 47.64748 | -114.29359 | 37702 ft | 431 kts | 212° |
| 2026-04-15 18:56 | 47.59433 | -114.33513 | 37694 ft | 431 kts | 212° |
| 2026-04-15 18:56 | 47.54115 | -114.37660 | 37657 ft | 431 kts | 212° |
| 2026-04-15 18:57 | 47.48852 | -114.41751 | 37690 ft | 429 kts | 212° |
| 2026-04-15 18:57 | 47.43561 | -114.45858 | 37710 ft | 429 kts | 212° |
| 2026-04-15 18:58 | 47.38271 | -114.49955 | 37692 ft | 428 kts | 212° |
| 2026-04-15 18:58 | 47.33018 | -114.54014 | 37698 ft | 428 kts | 212° |
| 2026-04-15 18:59 | 47.27733 | -114.58088 | 37697 ft | 428 kts | 212° |
| 2026-04-15 18:59 | 47.22454 | -114.62145 | 37704 ft | 427 kts | 212° |
| 2026-04-15 19:00 | 47.17178 | -114.66195 | 37728 ft | 427 kts | 212° |
| 2026-04-15 19:00 | 47.11921 | -114.70220 | 37726 ft | 429 kts | 212° |
| 2026-04-15 19:01 | 47.06621 | -114.74269 | 37744 ft | 429 kts | 212° |
| 2026-04-15 19:01 | 47.01314 | -114.78314 | 37742 ft | 429 kts | 212° |
| 2026-04-15 19:02 | 46.96067 | -114.82305 | 37749 ft | 428 kts | 212° |
| 2026-04-15 19:02 | 46.90769 | -114.86325 | 37769 ft | 428 kts | 212° |
| 2026-04-15 19:03 | 46.85473 | -114.90333 | 37781 ft | 428 kts | 212° |
| 2026-04-15 19:03 | 46.80170 | -114.94340 | 37793 ft | 428 kts | 212° |
| 2026-04-15 19:04 | 46.74900 | -114.98311 | 37797 ft | 428 kts | 212° |
| 2026-04-15 19:04 | 46.69605 | -115.02294 | 37778 ft | 427 kts | 212° |
| 2026-04-15 19:05 | 46.64332 | -115.06249 | 37839 ft | 426 kts | 212° |
| 2026-04-15 19:05 | 46.59060 | -115.10193 | 37816 ft | 425 kts | 212° |
| 2026-04-15 19:06 | 46.53805 | -115.14121 | 37813 ft | 425 kts | 212° |
| 2026-04-15 19:06 | 46.48578 | -115.18017 | 37819 ft | 424 kts | 212° |
| 2026-04-15 19:07 | 46.43316 | -115.21931 | 37795 ft | 424 kts | 212° |
| 2026-04-15 19:07 | 46.38054 | -115.25836 | 37813 ft | 424 kts | 212° |
| 2026-04-15 19:08 | 46.32844 | -115.29692 | 37823 ft | 423 kts | 212° |
| 2026-04-15 19:08 | 46.27599 | -115.33570 | 37811 ft | 422 kts | 212° |
| 2026-04-15 19:09 | 46.22363 | -115.37433 | 37809 ft | 423 kts | 212° |
| 2026-04-15 19:09 | 46.17108 | -115.41298 | 37764 ft | 422 kts | 212° |
| 2026-04-15 19:10 | 46.11886 | -115.45130 | 37807 ft | 420 kts | 212° |
| 2026-04-15 19:10 | 46.06701 | -115.48930 | 37815 ft | 420 kts | 212° |
| 2026-04-15 19:11 | 46.01471 | -115.52755 | 37811 ft | 420 kts | 212° |
| 2026-04-15 19:11 | 45.96260 | -115.56555 | 37805 ft | 420 kts | 212° |
| 2026-04-15 19:12 | 45.91070 | -115.60334 | 37809 ft | 420 kts | 212° |
| 2026-04-15 19:12 | 45.85850 | -115.64126 | 37807 ft | 420 kts | 212° |
| 2026-04-15 19:13 | 45.80620 | -115.67915 | 37803 ft | 421 kts | 212° |
| 2026-04-15 19:13 | 45.75382 | -115.71705 | 37810 ft | 421 kts | 212° |
| 2026-04-15 19:14 | 45.70189 | -115.75455 | 37815 ft | 421 kts | 212° |
| 2026-04-15 19:14 | 45.64952 | -115.79227 | 37783 ft | 421 kts | 212° |
| 2026-04-15 19:15 | 45.59719 | -115.82988 | 37849 ft | 421 kts | 212° |
| 2026-04-15 19:15 | 45.54479 | -115.86746 | 37833 ft | 421 kts | 212° |
| 2026-04-15 19:16 | 45.49276 | -115.90471 | 37841 ft | 421 kts | 212° |
| 2026-04-15 19:16 | 45.44037 | -115.94213 | 37853 ft | 421 kts | 212° |
| 2026-04-15 19:17 | 45.38786 | -115.97957 | 37843 ft | 421 kts | 212° |
| 2026-04-15 19:17 | 45.33557 | -116.01672 | 37872 ft | 419 kts | 212° |
| 2026-04-15 19:18 | 45.28349 | -116.05373 | 37887 ft | 417 kts | 212° |
| 2026-04-15 19:18 | 45.20567 | -116.10883 | 37885 ft | 417 kts | 212° |
| 2026-04-15 19:19 | 45.15367 | -116.14555 | 37897 ft | 417 kts | 212° |
| 2026-04-15 19:19 | 45.10197 | -116.18193 | 37887 ft | 416 kts | 212° |
| 2026-04-15 19:20 | 45.05002 | -116.21851 | 37904 ft | 416 kts | 212° |
| 2026-04-15 19:20 | 44.99824 | -116.25487 | 37917 ft | 416 kts | 212° |
| 2026-04-15 19:21 | 44.94639 | -116.29119 | 37926 ft | 416 kts | 212° |
| 2026-04-15 19:21 | 44.89445 | -116.32750 | 37930 ft | 416 kts | 212° |
| 2026-04-15 19:22 | 44.84257 | -116.36364 | 37909 ft | 415 kts | 213° |
| 2026-04-15 19:22 | 44.79118 | -116.39947 | 37919 ft | 413 kts | 212° |
| 2026-04-15 19:23 | 44.73956 | -116.43534 | 37920 ft | 413 kts | 212° |
| 2026-04-15 19:23 | 44.68794 | -116.47114 | 37922 ft | 413 kts | 212° |
| 2026-04-15 19:24 | 44.63630 | -116.50687 | 37916 ft | 413 kts | 212° |
| 2026-04-15 19:24 | 44.58512 | -116.54219 | 37902 ft | 410 kts | 212° |
| 2026-04-15 19:25 | 44.53374 | -116.57762 | 37913 ft | 412 kts | 212° |
| 2026-04-15 19:25 | 44.48218 | -116.61311 | 37916 ft | 412 kts | 212° |
| 2026-04-15 19:26 | 44.43064 | -116.64850 | 37909 ft | 412 kts | 212° |
| 2026-04-15 19:26 | 44.37943 | -116.68359 | 37916 ft | 412 kts | 212° |
| 2026-04-15 19:27 | 44.32789 | -116.71883 | 37897 ft | 411 kts | 212° |
| 2026-04-15 19:27 | 44.27639 | -116.75399 | 37903 ft | 411 kts | 212° |
| 2026-04-15 19:28 | 44.22523 | -116.78884 | 37895 ft | 411 kts | 212° |
| 2026-04-15 19:28 | 44.17369 | -116.82388 | 37891 ft | 411 kts | 212° |
| 2026-04-15 19:29 | 44.12225 | -116.85880 | 37885 ft | 411 kts | 212° |
| 2026-04-15 19:29 | 44.07088 | -116.89358 | 37865 ft | 409 kts | 212° |
| 2026-04-15 19:30 | 44.01963 | -116.92823 | 37880 ft | 409 kts | 212° |
| 2026-04-15 19:30 | 43.96838 | -116.96280 | 37880 ft | 409 kts | 212° |
| 2026-04-15 19:31 | 43.91744 | -116.99711 | 37879 ft | 410 kts | 212° |
| 2026-04-15 19:31 | 43.86615 | -117.03158 | 37837 ft | 410 kts | 212° |
| 2026-04-15 19:32 | 43.81479 | -117.06603 | 37883 ft | 411 kts | 212° |
| 2026-04-15 19:32 | 43.76325 | -117.10054 | 37874 ft | 411 kts | 212° |
| 2026-04-15 19:33 | 43.71197 | -117.13480 | 37878 ft | 411 kts | 212° |
| 2026-04-15 19:33 | 43.66039 | -117.16920 | 37862 ft | 411 kts | 212° |
| 2026-04-15 19:34 | 43.60892 | -117.20347 | 37829 ft | 411 kts | 212° |
| 2026-04-15 19:34 | 43.55733 | -117.23773 | 37850 ft | 412 kts | 212° |
| 2026-04-15 19:35 | 43.50564 | -117.27201 | 37852 ft | 412 kts | 212° |
| 2026-04-15 19:35 | 43.45392 | -117.30624 | 37850 ft | 412 kts | 212° |
| 2026-04-15 19:36 | 43.40258 | -117.34015 | 37853 ft | 412 kts | 212° |
| 2026-04-15 19:36 | 43.35088 | -117.37423 | 37852 ft | 412 kts | 212° |
| 2026-04-15 19:37 | 43.29902 | -117.40836 | 37851 ft | 413 kts | 212° |
| 2026-04-15 19:37 | 43.24719 | -117.44241 | 37851 ft | 413 kts | 212° |
| 2026-04-15 19:38 | 43.19531 | -117.47641 | 37853 ft | 413 kts | 212° |
| 2026-04-15 19:38 | 43.14342 | -117.51038 | 37850 ft | 413 kts | 212° |
| 2026-04-15 19:39 | 43.09139 | -117.54436 | 37830 ft | 414 kts | 212° |
| 2026-04-15 19:39 | 43.03961 | -117.57811 | 37851 ft | 414 kts | 212° |
| 2026-04-15 19:40 | 42.98760 | -117.61194 | 37848 ft | 414 kts | 212° |
| 2026-04-15 19:40 | 42.93552 | -117.64577 | 37859 ft | 414 kts | 212° |
| 2026-04-15 19:41 | 42.88370 | -117.67936 | 37807 ft | 414 kts | 212° |
| 2026-04-15 19:41 | 42.83153 | -117.71314 | 37860 ft | 415 kts | 211° |
| 2026-04-15 19:42 | 42.77920 | -117.74692 | 37870 ft | 416 kts | 211° |
| 2026-04-15 19:42 | 42.72685 | -117.78064 | 37889 ft | 416 kts | 211° |
| 2026-04-15 19:43 | 42.67485 | -117.81409 | 37892 ft | 416 kts | 211° |
| 2026-04-15 19:43 | 42.62245 | -117.84783 | 37878 ft | 417 kts | 212° |
| 2026-04-15 19:44 | 42.57160 | -117.88555 | 37893 ft | 414 kts | 217° |
| 2026-04-15 19:44 | 42.53138 | -117.92060 | 37899 ft | 414 kts | 218° |
| 2026-04-15 19:45 | 42.47505 | -117.96986 | 37894 ft | 414 kts | 218° |
| 2026-04-15 19:45 | 42.42659 | -118.01220 | 37895 ft | 414 kts | 218° |
| 2026-04-15 19:46 | 42.38632 | -118.04737 | 37857 ft | 414 kts | 218° |
| 2026-04-15 19:46 | 42.33770 | -118.08984 | 37884 ft | 416 kts | 218° |
| 2026-04-15 19:47 | 42.28895 | -118.13231 | 37891 ft | 416 kts | 218° |
| 2026-04-15 19:47 | 42.24028 | -118.17463 | 37895 ft | 416 kts | 218° |
| 2026-04-15 19:48 | 42.19164 | -118.21682 | 37897 ft | 415 kts | 218° |
| 2026-04-15 19:48 | 42.14325 | -118.25877 | 37877 ft | 415 kts | 218° |
| 2026-04-15 19:49 | 42.09454 | -118.30096 | 37899 ft | 417 kts | 218° |
| 2026-04-15 19:49 | 42.04560 | -118.34320 | 37903 ft | 417 kts | 218° |
| 2026-04-15 19:50 | 41.99678 | -118.38526 | 37900 ft | 417 kts | 217° |
| 2026-04-15 19:50 | 41.94809 | -118.42713 | 37901 ft | 417 kts | 217° |
| 2026-04-15 19:51 | 41.89917 | -118.46914 | 37911 ft | 417 kts | 217° |
| 2026-04-15 19:51 | 41.85002 | -118.51131 | 37909 ft | 421 kts | 217° |
| 2026-04-15 19:52 | 41.80053 | -118.55360 | 37904 ft | 421 kts | 217° |
| 2026-04-15 19:52 | 41.75143 | -118.59552 | 37909 ft | 421 kts | 217° |
| 2026-04-15 19:53 | 41.70188 | -118.63775 | 37909 ft | 422 kts | 217° |
| 2026-04-15 19:53 | 41.65235 | -118.67989 | 37915 ft | 422 kts | 217° |
| 2026-04-15 19:54 | 41.60272 | -118.72208 | 37888 ft | 424 kts | 217° |
| 2026-04-15 19:54 | 41.55274 | -118.76443 | 37901 ft | 425 kts | 217° |
| 2026-04-15 19:55 | 41.50271 | -118.80673 | 37906 ft | 425 kts | 217° |
| 2026-04-15 19:55 | 41.45274 | -118.84892 | 37910 ft | 425 kts | 217° |
| 2026-04-15 19:56 | 41.40288 | -118.89095 | 37903 ft | 428 kts | 217° |
| 2026-04-15 19:56 | 41.35238 | -118.93350 | 37898 ft | 430 kts | 217° |
| 2026-04-15 19:57 | 41.30168 | -118.97605 | 37913 ft | 430 kts | 217° |
| 2026-04-15 19:57 | 41.25098 | -119.01851 | 37912 ft | 430 kts | 217° |
| 2026-04-15 19:58 | 41.20052 | -119.06071 | 37910 ft | 431 kts | 217° |
| 2026-04-15 19:58 | 41.14959 | -119.10324 | 37913 ft | 432 kts | 217° |
| 2026-04-15 19:59 | 41.09859 | -119.14578 | 37926 ft | 433 kts | 217° |
| 2026-04-15 19:59 | 41.04747 | -119.18830 | 37922 ft | 433 kts | 217° |
| 2026-04-15 20:00 | 40.99637 | -119.23072 | 37923 ft | 433 kts | 217° |
| 2026-04-15 20:00 | 40.94564 | -119.27279 | 37919 ft | 434 kts | 216° |
| 2026-04-15 20:01 | 40.89431 | -119.31526 | 37931 ft | 435 kts | 216° |
| 2026-04-15 20:01 | 40.84275 | -119.35784 | 37934 ft | 435 kts | 216° |
| 2026-04-15 20:02 | 40.79134 | -119.40021 | 37943 ft | 435 kts | 216° |
| 2026-04-15 20:02 | 40.74022 | -119.44227 | 37936 ft | 435 kts | 216° |
| 2026-04-15 20:03 | 40.68873 | -119.48456 | 37944 ft | 435 kts | 216° |
| 2026-04-15 20:03 | 40.63728 | -119.52674 | 37929 ft | 436 kts | 216° |
| 2026-04-15 20:04 | 40.58563 | -119.56901 | 37943 ft | 437 kts | 216° |
| 2026-04-15 20:04 | 40.53384 | -119.61130 | 37949 ft | 437 kts | 216° |
| 2026-04-15 20:05 | 40.48238 | -119.65325 | 37953 ft | 437 kts | 216° |
| 2026-04-15 20:05 | 40.43052 | -119.69546 | 37956 ft | 437 kts | 216° |
| 2026-04-15 20:06 | 40.37873 | -119.73756 | 37945 ft | 439 kts | 216° |
| 2026-04-15 20:06 | 40.32671 | -119.77975 | 37963 ft | 440 kts | 216° |
| 2026-04-15 20:07 | 40.27461 | -119.82188 | 37968 ft | 440 kts | 216° |
| 2026-04-15 20:07 | 40.22230 | -119.86413 | 37971 ft | 443 kts | 216° |
| 2026-04-15 20:08 | 40.16966 | -119.90658 | 37975 ft | 444 kts | 216° |
| 2026-04-15 20:08 | 40.11699 | -119.94900 | 37981 ft | 445 kts | 215° |
| 2026-04-15 20:09 | 40.06446 | -119.99118 | 37989 ft | 445 kts | 215° |
| 2026-04-15 20:09 | 40.01162 | -120.03353 | 37993 ft | 445 kts | 215° |
| 2026-04-15 20:10 | 39.95888 | -120.07573 | 38006 ft | 445 kts | 215° |
| 2026-04-15 20:10 | 39.90601 | -120.11804 | 38007 ft | 445 kts | 216° |
| 2026-04-15 20:11 | 39.85591 | -120.16489 | 38003 ft | 441 kts | 223° |
| 2026-04-15 20:11 | 39.81116 | -120.21832 | 38037 ft | 438 kts | 229° |
| 2026-04-15 20:12 | 39.77155 | -120.27834 | 38036 ft | 435 kts | 235° |
| 2026-04-15 20:12 | 39.73681 | -120.34288 | 38054 ft | 435 kts | 238° |
| 2026-04-15 20:13 | 39.70260 | -120.40790 | 38053 ft | 435 kts | 238° |
| 2026-04-15 20:13 | 39.66847 | -120.47266 | 38072 ft | 437 kts | 238° |
| 2026-04-15 20:14 | 39.63407 | -120.53784 | 38088 ft | 437 kts | 238° |
| 2026-04-15 20:14 | 39.59960 | -120.60301 | 38095 ft | 437 kts | 238° |
| 2026-04-15 20:15 | 39.56509 | -120.66812 | 38102 ft | 437 kts | 238° |
| 2026-04-15 20:15 | 39.53054 | -120.73316 | 38107 ft | 437 kts | 238° |
| 2026-04-15 20:16 | 39.49589 | -120.79831 | 38114 ft | 439 kts | 238° |
| 2026-04-15 20:16 | 39.46110 | -120.86353 | 38137 ft | 440 kts | 238° |
| 2026-04-15 20:17 | 39.42646 | -120.92833 | 38130 ft | 440 kts | 237° |
| 2026-04-15 20:17 | 39.39147 | -120.99368 | 38130 ft | 442 kts | 237° |
| 2026-04-15 20:18 | 39.35630 | -121.05920 | 38137 ft | 443 kts | 237° |
| 2026-04-15 20:18 | 39.31934 | -121.12236 | 38134 ft | 445 kts | 232° |
| 2026-04-15 20:19 | 39.27949 | -121.18368 | 38137 ft | 444 kts | 232° |
| 2026-04-15 20:19 | 39.23963 | -121.24492 | 38109 ft | 445 kts | 232° |
| 2026-04-15 20:20 | 39.19962 | -121.30625 | 38118 ft | 446 kts | 232° |
| 2026-04-15 20:20 | 39.15952 | -121.36761 | 38119 ft | 447 kts | 232° |
| 2026-04-15 20:21 | 39.11962 | -121.42851 | 38112 ft | 447 kts | 232° |
| 2026-04-15 20:21 | 39.07935 | -121.48987 | 38118 ft | 447 kts | 232° |
| 2026-04-15 20:22 | 39.03905 | -121.55114 | 37883 ft | 448 kts | 232° |
| 2026-04-15 20:22 | 39.01894 | -121.58167 | 37614 ft | 446 kts | 232° |
| 2026-04-15 20:22 | 38.99897 | -121.61196 | 37305 ft | 443 kts | 232° |
| 2026-04-15 20:23 | 38.97908 | -121.64209 | 36976 ft | 441 kts | 232° |
| 2026-04-15 20:23 | 38.95922 | -121.67216 | 36551 ft | 440 kts | 232° |
| 2026-04-15 20:23 | 38.93958 | -121.70187 | 36031 ft | 441 kts | 232° |
| 2026-04-15 20:23 | 38.91971 | -121.73191 | 35465 ft | 441 kts | 232° |
| 2026-04-15 20:24 | 38.89982 | -121.76196 | 34904 ft | 441 kts | 232° |
| 2026-04-15 20:24 | 38.85999 | -121.82200 | 33718 ft | 441 kts | 232° |
| 2026-04-15 20:24 | 38.84000 | -121.85211 | 33156 ft | 444 kts | 232° |
| 2026-04-15 20:25 | 38.81983 | -121.88247 | 32597 ft | 448 kts | 232° |
| 2026-04-15 20:25 | 38.79952 | -121.91300 | 32062 ft | 450 kts | 232° |
| 2026-04-15 20:25 | 38.77913 | -121.94360 | 31495 ft | 451 kts | 232° |
| 2026-04-15 20:25 | 38.75865 | -121.97431 | 30874 ft | 452 kts | 232° |
| 2026-04-15 20:26 | 38.73820 | -122.00496 | 30237 ft | 452 kts | 232° |
| 2026-04-15 20:26 | 38.71798 | -122.03523 | 29483 ft | 453 kts | 232° |
| 2026-04-15 20:26 | 38.69741 | -122.06599 | 28750 ft | 453 kts | 232° |
| 2026-04-15 20:26 | 38.67689 | -122.09664 | 28086 ft | 452 kts | 232° |
| 2026-04-15 20:27 | 38.65639 | -122.12722 | 27604 ft | 450 kts | 232° |
| 2026-04-15 20:27 | 38.63609 | -122.15748 | 27120 ft | 446 kts | 232° |
| 2026-04-15 20:27 | 38.61592 | -122.18752 | 26608 ft | 442 kts | 232° |
| 2026-04-15 20:27 | 38.59594 | -122.21725 | 26098 ft | 438 kts | 232° |
| 2026-04-15 20:28 | 38.57609 | -122.24677 | 25632 ft | 434 kts | 232° |
| 2026-04-15 20:28 | 38.55667 | -122.27561 | 25174 ft | 431 kts | 232° |
| 2026-04-15 20:28 | 38.53721 | -122.30448 | 24800 ft | 424 kts | 232° |
| 2026-04-15 20:28 | 38.51821 | -122.33264 | 24707 ft | 410 kts | 232° |
| 2026-04-15 20:29 | 38.49982 | -122.35984 | 24565 ft | 398 kts | 232° |
| 2026-04-15 20:29 | 38.48199 | -122.38622 | 24423 ft | 387 kts | 232° |
| 2026-04-15 20:29 | 38.46447 | -122.41215 | 24318 ft | 384 kts | 232° |
| 2026-04-15 20:29 | 38.44698 | -122.43806 | 24165 ft | 383 kts | 232° |
| 2026-04-15 20:30 | 38.42981 | -122.46362 | 23766 ft | 382 kts | 232° |
| 2026-04-15 20:30 | 38.41260 | -122.48924 | 23362 ft | 378 kts | 232° |
| 2026-04-15 20:30 | 38.39553 | -122.51465 | 22966 ft | 375 kts | 232° |
| 2026-04-15 20:30 | 38.37860 | -122.53978 | 22653 ft | 372 kts | 232° |
| 2026-04-15 20:31 | 38.36174 | -122.56480 | 22342 ft | 371 kts | 232° |
| 2026-04-15 20:31 | 38.34496 | -122.58967 | 22048 ft | 369 kts | 232° |
| 2026-04-15 20:31 | 38.32814 | -122.61459 | 21734 ft | 367 kts | 232° |
| 2026-04-15 20:31 | 38.31159 | -122.63906 | 21345 ft | 363 kts | 232° |
| 2026-04-15 20:32 | 38.29507 | -122.66349 | 20814 ft | 363 kts | 232° |
| 2026-04-15 20:32 | 38.28415 | -122.67964 | 20506 ft | 362 kts | 232° |
| 2026-04-15 20:32 | 38.26775 | -122.70384 | 20093 ft | 359 kts | 232° |
| 2026-04-15 20:32 | 38.25150 | -122.72775 | 19704 ft | 355 kts | 230° |
| 2026-04-15 20:33 | 38.23232 | -122.74762 | 19285 ft | 360 kts | 211° |
| 2026-04-15 20:33 | 38.20834 | -122.75761 | 18882 ft | 367 kts | 191° |
| 2026-04-15 20:33 | 38.18269 | -122.75627 | 18465 ft | 373 kts | 172° |
| 2026-04-15 20:33 | 38.15743 | -122.74889 | 18061 ft | 372 kts | 171° |
| 2026-04-15 20:34 | 38.13237 | -122.74125 | 17664 ft | 369 kts | 171° |
| 2026-04-15 20:34 | 38.10740 | -122.73374 | 17277 ft | 367 kts | 171° |
| 2026-04-15 20:34 | 38.08259 | -122.72637 | 16909 ft | 365 kts | 171° |
| 2026-04-15 20:34 | 38.05823 | -122.71922 | 16546 ft | 363 kts | 171° |
| 2026-04-15 20:35 | 38.03366 | -122.71206 | 16182 ft | 360 kts | 171° |
| 2026-04-15 20:35 | 38.00927 | -122.70499 | 15825 ft | 358 kts | 171° |
| 2026-04-15 20:35 | 37.98243 | -122.69721 | 15414 ft | 356 kts | 171° |
| 2026-04-15 20:35 | 37.95833 | -122.69025 | 15049 ft | 354 kts | 171° |
| 2026-04-15 20:36 | 37.93435 | -122.68332 | 14688 ft | 352 kts | 171° |
| 2026-04-15 20:36 | 37.91065 | -122.67518 | 14319 ft | 353 kts | 163° |
| 2026-04-15 20:36 | 37.88859 | -122.66123 | 13944 ft | 356 kts | 150° |
| 2026-04-15 20:36 | 37.86878 | -122.64214 | 13552 ft | 357 kts | 143° |
| 2026-04-15 20:37 | 37.84993 | -122.62180 | 13177 ft | 355 kts | 142° |
| 2026-04-15 20:37 | 37.83126 | -122.60144 | 12816 ft | 353 kts | 142° |
| 2026-04-15 20:37 | 37.81259 | -122.58133 | 12455 ft | 351 kts | 142° |
| 2026-04-15 20:37 | 37.79394 | -122.56145 | 12108 ft | 349 kts | 143° |
| 2026-04-15 20:38 | 37.77536 | -122.54176 | 11756 ft | 347 kts | 142° |
| 2026-04-15 20:38 | 37.75715 | -122.52251 | 11454 ft | 342 kts | 142° |
| 2026-04-15 20:38 | 37.73907 | -122.50339 | 11148 ft | 335 kts | 142° |
| 2026-04-15 20:38 | 37.72149 | -122.48474 | 11008 ft | 323 kts | 142° |
| 2026-04-15 20:39 | 37.70466 | -122.46678 | 11000 ft | 309 kts | 142° |
| 2026-04-15 20:39 | 37.68822 | -122.44927 | 11000 ft | 308 kts | 142° |
| 2026-04-15 20:39 | 37.67182 | -122.43182 | 11005 ft | 308 kts | 142° |
| 2026-04-15 20:39 | 37.65542 | -122.41440 | 11004 ft | 308 kts | 142° |
| 2026-04-15 20:40 | 37.63902 | -122.39700 | 11007 ft | 308 kts | 142° |
| 2026-04-15 20:40 | 37.62280 | -122.37982 | 10995 ft | 308 kts | 142° |
| 2026-04-15 20:40 | 37.60597 | -122.36317 | 11002 ft | 305 kts | 149° |
| 2026-04-15 20:40 | 37.58787 | -122.34974 | 10713 ft | 300 kts | 158° |
| 2026-04-15 20:41 | 37.56845 | -122.33961 | 10290 ft | 301 kts | 161° |
| 2026-04-15 20:41 | 37.54922 | -122.32929 | 9955 ft | 300 kts | 157° |
| 2026-04-15 20:41 | 37.53036 | -122.31779 | 9589 ft | 299 kts | 156° |
| 2026-04-15 20:41 | 37.51182 | -122.30610 | 9238 ft | 298 kts | 154° |
| 2026-04-15 20:42 | 37.49520 | -122.29061 | 8873 ft | 300 kts | 131° |
| 2026-04-15 20:42 | 37.48313 | -122.26920 | 8594 ft | 297 kts | 123° |
| 2026-04-15 20:42 | 37.47205 | -122.24721 | 8181 ft | 299 kts | 123° |
| 2026-04-15 20:42 | 37.46098 | -122.22479 | 7745 ft | 302 kts | 122° |
| 2026-04-15 20:43 | 37.44993 | -122.20222 | 7336 ft | 302 kts | 122° |
| 2026-04-15 20:43 | 37.43902 | -122.18000 | 6991 ft | 302 kts | 122° |
| 2026-04-15 20:43 | 37.42790 | -122.15753 | 6662 ft | 300 kts | 121° |
| 2026-04-15 20:43 | 37.41949 | -122.13396 | 6517 ft | 290 kts | 101° |
| 2026-04-15 20:44 | 37.41938 | -122.10912 | 6225 ft | 282 kts | 73° |
| 2026-04-15 20:44 | 37.42793 | -122.08745 | 5912 ft | 274 kts | 45° |
| 2026-04-15 20:44 | 37.44289 | -122.07378 | 5589 ft | 264 kts | 17° |
| 2026-04-15 20:44 | 37.46074 | -122.07090 | 5279 ft | 258 kts | 349° |
| 2026-04-15 20:45 | 37.47688 | -122.07898 | 4956 ft | 253 kts | 325° |
| 2026-04-15 20:45 | 37.49109 | -122.09184 | 4717 ft | 248 kts | 322° |
| 2026-04-15 20:45 | 37.50413 | -122.10564 | 4539 ft | 240 kts | 314° |
| 2026-04-15 20:45 | 37.51474 | -122.12162 | 4174 ft | 235 kts | 304° |
| 2026-04-15 20:46 | 37.52283 | -122.13916 | 3823 ft | 227 kts | 299° |
| 2026-04-15 20:46 | 37.52999 | -122.15643 | 3566 ft | 217 kts | 298° |
| 2026-04-15 20:46 | 37.53669 | -122.17296 | 3354 ft | 205 kts | 298° |
| 2026-04-15 20:46 | 37.54292 | -122.18842 | 3203 ft | 190 kts | 298° |
| 2026-04-15 20:47 | 37.54892 | -122.20293 | 3006 ft | 182 kts | 298° |
| 2026-04-15 20:47 | 37.55458 | -122.21670 | 2744 ft | 176 kts | 299° |
| 2026-04-15 20:47 | 37.56051 | -122.23007 | 2453 ft | 170 kts | 298° |
| 2026-04-15 20:47 | 37.56608 | -122.24293 | 2117 ft | 165 kts | 297° |
| 2026-04-15 20:48 | 37.57137 | -122.25560 | 1736 ft | 159 kts | 295° |
| 2026-04-15 20:48 | 37.57626 | -122.26761 | 1477 ft | 148 kts | 295° |
| 2026-04-15 20:48 | 37.58083 | -122.27904 | 1335 ft | 143 kts | 294° |
| 2026-04-15 20:48 | 37.58521 | -122.29011 | 1210 ft | 140 kts | 295° |
| 2026-04-15 20:49 | 37.58995 | -122.30091 | 1085 ft | 143 kts | 295° |
| 2026-04-15 20:49 | 37.59470 | -122.31241 | 924 ft | 154 kts | 296° |
| 2026-04-15 20:49 | 37.59969 | -122.32457 | 694 ft | 154 kts | 296° |
| 2026-04-15 20:49 | 37.60461 | -122.33600 | 477 ft | 143 kts | 296° |
| 2026-04-15 20:50 | 37.60933 | -122.34703 | 248 ft | 145 kts | 294° |
| 2026-04-15 20:50 | 37.61407 | -122.35837 | 90 ft | 147 kts | 294° |
| 2026-04-15 20:50 | 37.61858 | -122.36915 | 31 ft | 125 kts | 297° |
| 2026-04-15 20:50 | 37.62170 | -122.37668 | 30 ft | 71 kts | 298° |
| 2026-04-15 20:51 | 37.62321 | -122.38020 | 30 ft | 19 kts | 298° |
| 2026-04-15 20:51 | 37.62373 | -122.38146 | 30 ft | 8 kts | 294° |
| 2026-04-15 20:51 | 37.62360 | -122.38210 | 30 ft | 9 kts | 217° |
| 2026-04-15 20:51 | 37.62289 | -122.38258 | 30 ft | 13 kts | 207° |
| 2026-04-15 20:52 | 37.62197 | -122.38319 | 30 ft | 17 kts | 207° |
| 2026-04-15 20:52 | 37.62136 | -122.38365 | 30 ft | 8 kts | 236° |
| 2026-04-15 20:52 | 37.62144 | -122.38449 | 30 ft | 12 kts | 295° |
| 2026-04-15 20:52 | 37.62187 | -122.38554 | 30 ft | 15 kts | 297° |
| 2026-04-15 20:53 | 37.62240 | -122.38681 | 30 ft | 18 kts | 297° |
| 2026-04-15 20:53 | 37.62298 | -122.38820 | 30 ft | 16 kts | 298° |
| 2026-04-15 20:53 | 37.62339 | -122.38924 | 30 ft | 13 kts | 282° |
| 2026-04-15 20:53 | 37.62325 | -122.39046 | 30 ft | 16 kts | 253° |
| 2026-04-15 20:54 | 37.62294 | -122.39148 | 30 ft | 12 kts | 236° |
| 2026-04-15 20:54 | 37.62218 | -122.39216 | 30 ft | 15 kts | 208° |
| 2026-04-15 20:54 | 37.62131 | -122.39275 | 30 ft | 11 kts | 209° |
| 2026-04-15 20:54 | 37.62056 | -122.39326 | 30 ft | 13 kts | 207° |
| 2026-04-15 20:55 | 37.62001 | -122.39373 | 30 ft | 9 kts | 234° |
| 2026-04-15 20:55 | 37.61989 | -122.39407 | 30 ft | 2 kts | 250° |
| 2026-04-15 20:55 | 37.61979 | -122.39429 | 30 ft | 3 kts | 222° |
| 2026-04-15 20:55 | 37.61952 | -122.39430 | 30 ft | 5 kts | 160° |
| 2026-04-15 20:56 | 37.61916 | -122.39411 | 30 ft | 5 kts | 156° |
| 2026-04-15 20:56 | 37.61898 | -122.39401 | 30 ft | 0 kts | 156° |